<?xml version='1.0' encoding='UTF-8'?><gpx version="1.1" creator="JPX - https://github.com/jenetics/jpx" xmlns="http://www.topografix.com/GPX/1/1"><trk><trkseg><trkpt lat="43.45432974106694" lon="12.239992493011885"><ele>284.0</ele><time>2026-04-18T09:00:08.999Z</time></trkpt><trkpt lat="43.454311322054515" lon="12.240088320125926"><ele>284.0</ele><time>2026-04-18T09:00:11.999Z</time></trkpt><trkpt lat="43.45430703452154" lon="12.24018325171271"><ele>284.0</ele><time>2026-04-18T09:00:14.999Z</time></trkpt><trkpt lat="43.4542993536403" lon="12.240288390844993"><ele>284.0</ele><time>2026-04-18T09:00:18.999Z</time></trkpt><trkpt lat="43.45428498642461" lon="12.240391034616188"><ele>284.0</ele><time>2026-04-18T09:00:21.999Z</time></trkpt><trkpt lat="43.45427577199333" lon="12.240487046028933"><ele>284.0</ele><time>2026-04-18T09:00:23.999Z</time></trkpt><trkpt lat="43.45424463462263" lon="12.240584428827347"><ele>284.0</ele><time>2026-04-18T09:00:27.999Z</time></trkpt><trkpt lat="43.45422729994827" lon="12.24068352842115"><ele>284.1666666666667</ele><time>2026-04-18T09:00:30.999Z</time></trkpt><trkpt lat="43.4542084861435" lon="12.240770080500813"><ele>284.33333333333337</ele><time>2026-04-18T09:00:33.999Z</time></trkpt><trkpt lat="43.4541961140445" lon="12.240869743139234"><ele>284.5</ele><time>2026-04-18T09:00:36.999Z</time></trkpt><trkpt lat="43.45417658553671" lon="12.240973866045747"><ele>284.6666666666667</ele><time>2026-04-18T09:00:40.999Z</time></trkpt><trkpt lat="43.45419433779939" lon="12.241063474635892"><ele>284.8333333333333</ele><time>2026-04-18T09:00:43.999Z</time></trkpt><trkpt lat="43.45421795265662" lon="12.24115684962622"><ele>285.0</ele><time>2026-04-18T09:00:46.999Z</time></trkpt><trkpt lat="43.45413259911727" lon="12.24110386138284"><ele>285.0</ele><time>2026-04-18T09:00:53.999Z</time></trkpt><trkpt lat="43.45403984570314" lon="12.241119049882727"><ele>285.0</ele><time>2026-04-18T09:00:57.999Z</time></trkpt><trkpt lat="43.453954725740175" lon="12.241154316919522"><ele>285.0</ele><time>2026-04-18T09:00:59.999Z</time></trkpt><trkpt lat="43.45389412944766" lon="12.241217810491886"><ele>285.0</ele><time>2026-04-18T09:01:01.999Z</time></trkpt><trkpt lat="43.45388407596824" lon="12.241127152671543"><ele>285.0</ele><time>2026-04-18T09:01:05.999Z</time></trkpt><trkpt lat="43.45389376320879" lon="12.241037331324081"><ele>285.0</ele><time>2026-04-18T09:01:08.999Z</time></trkpt><trkpt lat="43.4538976536857" lon="12.240937627913839"><ele>285.0</ele><time>2026-04-18T09:01:10.999Z</time></trkpt><trkpt lat="43.45392190466683" lon="12.240846844780869"><ele>285.0</ele><time>2026-04-18T09:01:12.999Z</time></trkpt><trkpt lat="43.45394756544568" lon="12.240729325529365"><ele>285.0</ele><time>2026-04-18T09:01:15.998Z</time></trkpt><trkpt lat="43.45396258307964" lon="12.240628983287863"><ele>285.0</ele><time>2026-04-18T09:01:18.998Z</time></trkpt><trkpt lat="43.45394549264599" lon="12.240509273362504"><ele>285.0</ele><time>2026-04-18T09:01:21.998Z</time></trkpt><trkpt lat="43.45393782992179" lon="12.240401239285278"><ele>285.0</ele><time>2026-04-18T09:01:24.998Z</time></trkpt><trkpt lat="43.453942444865014" lon="12.240292666242572"><ele>284.8333333333333</ele><time>2026-04-18T09:01:28.998Z</time></trkpt><trkpt lat="43.45396732281583" lon="12.240204974501728"><ele>284.6666666666667</ele><time>2026-04-18T09:01:31.998Z</time></trkpt><trkpt lat="43.45397921805504" lon="12.240118353355102"><ele>284.5</ele><time>2026-04-18T09:01:34.998Z</time></trkpt><trkpt lat="43.45398493691253" lon="12.240010788561355"><ele>284.33333333333337</ele><time>2026-04-18T09:01:37.998Z</time></trkpt><trkpt lat="43.45398519057111" lon="12.239889148343703"><ele>284.1666666666667</ele><time>2026-04-18T09:01:41.999Z</time></trkpt><trkpt lat="43.45398431851892" lon="12.239773071647"><ele>284.0</ele><time>2026-04-18T09:01:45.999Z</time></trkpt><trkpt lat="43.454002725002795" lon="12.239681296272234"><ele>283.57142857142856</ele><time>2026-04-18T09:01:48.999Z</time></trkpt><trkpt lat="43.45400112254834" lon="12.239583679143392"><ele>283.1428571428571</ele><time>2026-04-18T09:01:51.999Z</time></trkpt><trkpt lat="43.45397954002232" lon="12.239496623452306"><ele>282.7142857142857</ele><time>2026-04-18T09:01:54.999Z</time></trkpt><trkpt lat="43.45399881941648" lon="12.239400790077298"><ele>282.2857142857143</ele><time>2026-04-18T09:01:57.999Z</time></trkpt><trkpt lat="43.454025922681176" lon="12.239287026960477"><ele>281.8571428571429</ele><time>2026-04-18T09:02:01.999Z</time></trkpt><trkpt lat="43.45403794206352" lon="12.239182220543317"><ele>281.42857142857144</ele><time>2026-04-18T09:02:04.999Z</time></trkpt><trkpt lat="43.454057252581876" lon="12.239087329988532"><ele>281.0</ele><time>2026-04-18T09:02:07.999Z</time></trkpt><trkpt lat="43.45406289820235" lon="12.238983178382545"><ele>281.00000000000006</ele><time>2026-04-18T09:02:10.999Z</time></trkpt><trkpt lat="43.45407906974903" lon="12.238885122851805"><ele>281.0</ele><time>2026-04-18T09:02:13.999Z</time></trkpt><trkpt lat="43.454068838802385" lon="12.238790324534904"><ele>281.0</ele><time>2026-04-18T09:02:16.999Z</time></trkpt><trkpt lat="43.454088517263784" lon="12.238683027745987"><ele>281.0</ele><time>2026-04-18T09:02:19.999Z</time></trkpt><trkpt lat="43.45406580691509" lon="12.238585160309212"><ele>281.0</ele><time>2026-04-18T09:02:22.999Z</time></trkpt><trkpt lat="43.45408195474608" lon="12.238499562715967"><ele>281.00000000000006</ele><time>2026-04-18T09:02:25.999Z</time></trkpt><trkpt lat="43.454055908740976" lon="12.23840973256002"><ele>281.0</ele><time>2026-04-18T09:02:30.999Z</time></trkpt><trkpt lat="43.45402519528846" lon="12.238331991746666"><ele>281.00000000000006</ele><time>2026-04-18T09:02:34.999Z</time></trkpt><trkpt lat="43.453942227551586" lon="12.238272712781706"><ele>281.0</ele><time>2026-04-18T09:02:39.999Z</time></trkpt><trkpt lat="43.45388812391789" lon="12.238189119786245"><ele>281.0</ele><time>2026-04-18T09:02:41.999Z</time></trkpt><trkpt lat="43.45390044513187" lon="12.238099495923931"><ele>281.0</ele><time>2026-04-18T09:02:43.999Z</time></trkpt><trkpt lat="43.45390183140011" lon="12.238000485444307"><ele>281.0</ele><time>2026-04-18T09:02:45.999Z</time></trkpt><trkpt lat="43.45390223075429" lon="12.23791113595031"><ele>281.00000000000006</ele><time>2026-04-18T09:02:49.999Z</time></trkpt><trkpt lat="43.45385861763876" lon="12.23784572951936"><ele>281.0</ele><time>2026-04-18T09:02:54.999Z</time></trkpt><trkpt lat="43.45379443967205" lon="12.237809703541911"><ele>280.6666666666667</ele><time>2026-04-18T09:02:59.999Z</time></trkpt><trkpt lat="43.45373271860128" lon="12.23774962588896"><ele>280.33333333333337</ele><time>2026-04-18T09:03:01.999Z</time></trkpt><trkpt lat="43.45366543344107" lon="12.237716540935628"><ele>280.0</ele><time>2026-04-18T09:03:03.999Z</time></trkpt><trkpt lat="43.453610595747314" lon="12.23766704961197"><ele>279.6666666666667</ele><time>2026-04-18T09:03:05.999Z</time></trkpt><trkpt lat="43.45352135861003" lon="12.237657771629477"><ele>279.3333333333333</ele><time>2026-04-18T09:03:07.999Z</time></trkpt><trkpt lat="43.45346646232075" lon="12.23759217628638"><ele>279.0</ele><time>2026-04-18T09:03:09.999Z</time></trkpt><trkpt lat="43.45339578983666" lon="12.237535342808378"><ele>278.99999999999994</ele><time>2026-04-18T09:03:12.999Z</time></trkpt><trkpt lat="43.453325183385054" lon="12.237504478667336"><ele>279.0</ele><time>2026-04-18T09:03:15.999Z</time></trkpt><trkpt lat="43.45328568152417" lon="12.237430631956205"><ele>279.0</ele><time>2026-04-18T09:03:18.999Z</time></trkpt><trkpt lat="43.45323987971622" lon="12.237516373999433"><ele>279.0</ele><time>2026-04-18T09:03:23.999Z</time></trkpt><trkpt lat="43.45321295199344" lon="12.237594911540526"><ele>279.0</ele><time>2026-04-18T09:03:25.999Z</time></trkpt><trkpt lat="43.453191809353626" lon="12.237677711176365"><ele>278.99999999999994</ele><time>2026-04-18T09:03:28.999Z</time></trkpt><trkpt lat="43.453150785312495" lon="12.237763575109703"><ele>279.0</ele><time>2026-04-18T09:03:31.998Z</time></trkpt><trkpt lat="43.45310551275253" lon="12.237852278895447"><ele>278.99999999999994</ele><time>2026-04-18T09:03:34.998Z</time></trkpt><trkpt lat="43.45306071041075" lon="12.23793882206464"><ele>279.0</ele><time>2026-04-18T09:03:37.998Z</time></trkpt><trkpt lat="43.453031943531144" lon="12.2380222289956"><ele>279.0</ele><time>2026-04-18T09:03:40.998Z</time></trkpt><trkpt lat="43.45298926115575" lon="12.238090589581807"><ele>279.0</ele><time>2026-04-18T09:03:43.998Z</time></trkpt><trkpt lat="43.4529424519831" lon="12.23815752220955"><ele>279.0</ele><time>2026-04-18T09:03:47Z</time></trkpt><trkpt lat="43.452935832763785" lon="12.238251620917566"><ele>278.99999999999994</ele><time>2026-04-18T09:03:49Z</time></trkpt><trkpt lat="43.452901918396115" lon="12.238340866765004"><ele>279.0</ele><time>2026-04-18T09:03:52Z</time></trkpt><trkpt lat="43.452855146247394" lon="12.238400579521947"><ele>279.1666666666667</ele><time>2026-04-18T09:03:55Z</time></trkpt><trkpt lat="43.452804794580274" lon="12.238492331374983"><ele>279.3333333333333</ele><time>2026-04-18T09:03:59Z</time></trkpt><trkpt lat="43.4527678832147" lon="12.238592164670584"><ele>279.5</ele><time>2026-04-18T09:04:02Z</time></trkpt><trkpt lat="43.45272744219834" lon="12.238690105783707"><ele>279.66666666666663</ele><time>2026-04-18T09:04:05Z</time></trkpt><trkpt lat="43.45269203888216" lon="12.238797186215491"><ele>279.8333333333333</ele><time>2026-04-18T09:04:08Z</time></trkpt><trkpt lat="43.45265598411723" lon="12.238896997764325"><ele>280.0</ele><time>2026-04-18T09:04:11Z</time></trkpt><trkpt lat="43.45262149828657" lon="12.238997787945083"><ele>279.7142857142857</ele><time>2026-04-18T09:04:15Z</time></trkpt><trkpt lat="43.45257185503598" lon="12.239080880747577"><ele>279.42857142857144</ele><time>2026-04-18T09:04:18Z</time></trkpt><trkpt lat="43.452544997969646" lon="12.239162975583278"><ele>279.1428571428571</ele><time>2026-04-18T09:04:21Z</time></trkpt><trkpt lat="43.452511244908806" lon="12.239255010915539"><ele>278.8571428571429</ele><time>2026-04-18T09:04:24Z</time></trkpt><trkpt lat="43.45247410351296" lon="12.239325675258682"><ele>278.57142857142856</ele><time>2026-04-18T09:04:26Z</time></trkpt><trkpt lat="43.45245364231499" lon="12.239418363937919"><ele>278.2857142857143</ele><time>2026-04-18T09:04:28.999Z</time></trkpt><trkpt lat="43.45241433097794" lon="12.239507152072846"><ele>278.0</ele><time>2026-04-18T09:04:31.999Z</time></trkpt><trkpt lat="43.452368429323876" lon="12.239576149413292"><ele>278.0</ele><time>2026-04-18T09:04:34.999Z</time></trkpt><trkpt lat="43.452317878976025" lon="12.239641283970313"><ele>278.0</ele><time>2026-04-18T09:04:37.999Z</time></trkpt><trkpt lat="43.45227487689814" lon="12.239726265522043"><ele>278.0</ele><time>2026-04-18T09:04:40.999Z</time></trkpt><trkpt lat="43.452236547824356" lon="12.239814454146074"><ele>278.0</ele><time>2026-04-18T09:04:43.999Z</time></trkpt><trkpt lat="43.452199944029935" lon="12.239904171213622"><ele>278.0</ele><time>2026-04-18T09:04:46.999Z</time></trkpt><trkpt lat="43.45216233255698" lon="12.23998148245746"><ele>278.0</ele><time>2026-04-18T09:04:49.999Z</time></trkpt><trkpt lat="43.4521348490318" lon="12.240063533126305"><ele>278.0</ele><time>2026-04-18T09:04:52.999Z</time></trkpt><trkpt lat="43.45208620698999" lon="12.240148639664978"><ele>278.1428571428571</ele><time>2026-04-18T09:04:55.999Z</time></trkpt><trkpt lat="43.45204263806995" lon="12.240223029874667"><ele>278.2857142857143</ele><time>2026-04-18T09:04:58.999Z</time></trkpt><trkpt lat="43.4520101871541" lon="12.240316193880878"><ele>278.42857142857144</ele><time>2026-04-18T09:05:01.999Z</time></trkpt><trkpt lat="43.45198742541499" lon="12.240402743795451"><ele>278.57142857142856</ele><time>2026-04-18T09:05:04.999Z</time></trkpt><trkpt lat="43.451938819757665" lon="12.240474828409038"><ele>278.7142857142857</ele><time>2026-04-18T09:05:07.999Z</time></trkpt><trkpt lat="43.45189546416315" lon="12.240547314646115"><ele>278.85714285714283</ele><time>2026-04-18T09:05:10.999Z</time></trkpt><trkpt lat="43.45184390640311" lon="12.240644098334862"><ele>279.0</ele><time>2026-04-18T09:05:13.999Z</time></trkpt><trkpt lat="43.45181152548154" lon="12.24074955368053"><ele>279.0</ele><time>2026-04-18T09:05:16.999Z</time></trkpt><trkpt lat="43.451806212529156" lon="12.240859126030768"><ele>279.0</ele><time>2026-04-18T09:05:19.999Z</time></trkpt><trkpt lat="43.45177259682523" lon="12.240954830611521"><ele>279.0</ele><time>2026-04-18T09:05:22.999Z</time></trkpt><trkpt lat="43.45173092718041" lon="12.241041774802044"><ele>279.0</ele><time>2026-04-18T09:05:25.999Z</time></trkpt><trkpt lat="43.45168445537059" lon="12.241127520200214"><ele>279.0</ele><time>2026-04-18T09:05:28.999Z</time></trkpt><trkpt lat="43.45166453688119" lon="12.241211703504014"><ele>279.0</ele><time>2026-04-18T09:05:31.999Z</time></trkpt><trkpt lat="43.45162230913428" lon="12.241302029621705"><ele>279.0</ele><time>2026-04-18T09:05:34.999Z</time></trkpt><trkpt lat="43.451580401659356" lon="12.241395771489673"><ele>279.0</ele><time>2026-04-18T09:05:37.999Z</time></trkpt><trkpt lat="43.45155104891453" lon="12.241485106361843"><ele>279.0</ele><time>2026-04-18T09:05:40.999Z</time></trkpt><trkpt lat="43.45150916062143" lon="12.241575196983698"><ele>279.0</ele><time>2026-04-18T09:05:44.999Z</time></trkpt><trkpt lat="43.45148747283914" lon="12.241677380997103"><ele>279.0</ele><time>2026-04-18T09:05:47.999Z</time></trkpt><trkpt lat="43.45149341368438" lon="12.241772605529619"><ele>279.0</ele><time>2026-04-18T09:05:51Z</time></trkpt><trkpt lat="43.4514877644186" lon="12.241877828919366"><ele>278.57142857142856</ele><time>2026-04-18T09:05:55Z</time></trkpt><trkpt lat="43.45146643409011" lon="12.24197623712015"><ele>278.1428571428571</ele><time>2026-04-18T09:05:58Z</time></trkpt><trkpt lat="43.45139991450145" lon="12.24198772667461"><ele>277.7142857142857</ele><time>2026-04-18T09:06:02Z</time></trkpt><trkpt lat="43.451331137508724" lon="12.242013747373264"><ele>277.2857142857143</ele><time>2026-04-18T09:06:05Z</time></trkpt><trkpt lat="43.45127826861858" lon="12.24210170933986"><ele>276.8571428571429</ele><time>2026-04-18T09:06:08Z</time></trkpt><trkpt lat="43.45124406708927" lon="12.242183613489853"><ele>276.42857142857144</ele><time>2026-04-18T09:06:11Z</time></trkpt><trkpt lat="43.451205077434615" lon="12.242270365689157"><ele>276.0</ele><time>2026-04-18T09:06:15Z</time></trkpt><trkpt lat="43.451175029050866" lon="12.242354940430111"><ele>276.0</ele><time>2026-04-18T09:06:18Z</time></trkpt><trkpt lat="43.451140603506474" lon="12.242436472036827"><ele>276.0</ele><time>2026-04-18T09:06:21Z</time></trkpt><trkpt lat="43.451108573993004" lon="12.242535563733686"><ele>276.0</ele><time>2026-04-18T09:06:24Z</time></trkpt><trkpt lat="43.451090667040795" lon="12.242640514785682"><ele>276.0</ele><time>2026-04-18T09:06:27Z</time></trkpt><trkpt lat="43.4510630406571" lon="12.242736742336604"><ele>276.0</ele><time>2026-04-18T09:06:30Z</time></trkpt><trkpt lat="43.45102141223786" lon="12.242838173563056"><ele>276.0</ele><time>2026-04-18T09:06:33Z</time></trkpt><trkpt lat="43.45098572546111" lon="12.242911387339431"><ele>276.0</ele><time>2026-04-18T09:06:36Z</time></trkpt><trkpt lat="43.45094903567937" lon="12.243009464676142"><ele>276.0</ele><time>2026-04-18T09:06:39Z</time></trkpt><trkpt lat="43.4509019660514" lon="12.24310733896341"><ele>276.0</ele><time>2026-04-18T09:06:42Z</time></trkpt><trkpt lat="43.45086621247619" lon="12.24318906758979"><ele>276.0</ele><time>2026-04-18T09:06:45Z</time></trkpt><trkpt lat="43.45082750416519" lon="12.243267900912263"><ele>276.0</ele><time>2026-04-18T09:06:47.999Z</time></trkpt><trkpt lat="43.45079376823629" lon="12.243350628710298"><ele>276.0</ele><time>2026-04-18T09:06:50.999Z</time></trkpt><trkpt lat="43.45074741939447" lon="12.243453980091763"><ele>276.0</ele><time>2026-04-18T09:06:53.999Z</time></trkpt><trkpt lat="43.450708461520435" lon="12.24352878477979"><ele>276.0</ele><time>2026-04-18T09:06:56.999Z</time></trkpt><trkpt lat="43.45066364908095" lon="12.243596193339432"><ele>275.8333333333333</ele><time>2026-04-18T09:06:59.999Z</time></trkpt><trkpt lat="43.45060891097429" lon="12.243673733120788"><ele>275.6666666666667</ele><time>2026-04-18T09:07:02.999Z</time></trkpt><trkpt lat="43.450565385888794" lon="12.243770396338661"><ele>275.5</ele><time>2026-04-18T09:07:05.999Z</time></trkpt><trkpt lat="43.450532135559754" lon="12.243848013964886"><ele>275.33333333333337</ele><time>2026-04-18T09:07:08.999Z</time></trkpt><trkpt lat="43.450483248486414" lon="12.243938503771254"><ele>275.1666666666667</ele><time>2026-04-18T09:07:12.999Z</time></trkpt><trkpt lat="43.450432990022165" lon="12.244029919696132"><ele>275.0</ele><time>2026-04-18T09:07:15.999Z</time></trkpt><trkpt lat="43.45038352043889" lon="12.244087310179006"><ele>275.0</ele><time>2026-04-18T09:07:18.999Z</time></trkpt><trkpt lat="43.4503236957567" lon="12.244152956878098"><ele>275.0</ele><time>2026-04-18T09:07:22.999Z</time></trkpt><trkpt lat="43.45027231469734" lon="12.244225507862843"><ele>275.0</ele><time>2026-04-18T09:07:25.999Z</time></trkpt><trkpt lat="43.450218501730305" lon="12.244315014390121"><ele>275.0</ele><time>2026-04-18T09:07:28.999Z</time></trkpt><trkpt lat="43.45018820414738" lon="12.244421475433041"><ele>275.0</ele><time>2026-04-18T09:07:31.999Z</time></trkpt><trkpt lat="43.45015360535962" lon="12.244533310900389"><ele>275.0</ele><time>2026-04-18T09:07:34.999Z</time></trkpt><trkpt lat="43.45011700621993" lon="12.244628040278382"><ele>275.0</ele><time>2026-04-18T09:07:37.999Z</time></trkpt><trkpt lat="43.4500645856718" lon="12.244687363900738"><ele>275.0</ele><time>2026-04-18T09:07:40.999Z</time></trkpt><trkpt lat="43.45001370355732" lon="12.244787534767207"><ele>275.0</ele><time>2026-04-18T09:07:43.999Z</time></trkpt><trkpt lat="43.44996269873966" lon="12.24488186227408"><ele>275.0</ele><time>2026-04-18T09:07:46.999Z</time></trkpt><trkpt lat="43.449913542744426" lon="12.244967416914262"><ele>275.0</ele><time>2026-04-18T09:07:50.999Z</time></trkpt><trkpt lat="43.44987189414641" lon="12.245032934762367"><ele>275.0</ele><time>2026-04-18T09:07:53.999Z</time></trkpt><trkpt lat="43.449842317432505" lon="12.24513022759779"><ele>275.0</ele><time>2026-04-18T09:07:57Z</time></trkpt><trkpt lat="43.44979422758353" lon="12.245220003682668"><ele>275.0</ele><time>2026-04-18T09:08:00Z</time></trkpt><trkpt lat="43.449765751461264" lon="12.245304472578885"><ele>275.0</ele><time>2026-04-18T09:08:03Z</time></trkpt><trkpt lat="43.44972976800977" lon="12.245387681478718"><ele>275.0</ele><time>2026-04-18T09:08:06Z</time></trkpt><trkpt lat="43.44970116867574" lon="12.24548205312953"><ele>275.0</ele><time>2026-04-18T09:08:09Z</time></trkpt><trkpt lat="43.44965592000533" lon="12.245543172081474"><ele>275.0</ele><time>2026-04-18T09:08:11Z</time></trkpt><trkpt lat="43.449621757902186" lon="12.2456183559254"><ele>275.0</ele><time>2026-04-18T09:08:14Z</time></trkpt><trkpt lat="43.449560499319574" lon="12.245691577735409"><ele>275.33333333333337</ele><time>2026-04-18T09:08:18Z</time></trkpt><trkpt lat="43.44950249246981" lon="12.245766061837124"><ele>275.6666666666667</ele><time>2026-04-18T09:08:22Z</time></trkpt><trkpt lat="43.44943730214581" lon="12.245831430828789"><ele>276.0</ele><time>2026-04-18T09:08:25Z</time></trkpt><trkpt lat="43.449382664819524" lon="12.24591078196187"><ele>276.3333333333333</ele><time>2026-04-18T09:08:28Z</time></trkpt><trkpt lat="43.449329762513486" lon="12.245980924098612"><ele>276.66666666666663</ele><time>2026-04-18T09:08:31Z</time></trkpt><trkpt lat="43.449279293655216" lon="12.246074443458124"><ele>277.0</ele><time>2026-04-18T09:08:34Z</time></trkpt><trkpt lat="43.449210249676014" lon="12.246134900508613"><ele>277.0</ele><time>2026-04-18T09:08:37Z</time></trkpt><trkpt lat="43.449150740526576" lon="12.24617476539107"><ele>277.0</ele><time>2026-04-18T09:08:40Z</time></trkpt><trkpt lat="43.44908983223532" lon="12.246248745530371"><ele>277.0</ele><time>2026-04-18T09:08:43Z</time></trkpt><trkpt lat="43.449024110751274" lon="12.246304530117834"><ele>277.0</ele><time>2026-04-18T09:08:46Z</time></trkpt><trkpt lat="43.44897443420415" lon="12.246385946219574"><ele>277.0</ele><time>2026-04-18T09:08:49Z</time></trkpt><trkpt lat="43.448923975880625" lon="12.2464670540247"><ele>277.0</ele><time>2026-04-18T09:08:53Z</time></trkpt><trkpt lat="43.44884639174648" lon="12.246529361380183"><ele>277.66666666666663</ele><time>2026-04-18T09:08:56Z</time></trkpt><trkpt lat="43.44877725949937" lon="12.24657695048351"><ele>278.3333333333333</ele><time>2026-04-18T09:08:58.999Z</time></trkpt><trkpt lat="43.448718559358085" lon="12.246630274704502"><ele>279.0</ele><time>2026-04-18T09:09:01.999Z</time></trkpt><trkpt lat="43.448657615437924" lon="12.246690563209679"><ele>279.6666666666667</ele><time>2026-04-18T09:09:04.999Z</time></trkpt><trkpt lat="43.448585489388485" lon="12.246700463990564"><ele>280.33333333333337</ele><time>2026-04-18T09:09:07.999Z</time></trkpt><trkpt lat="43.44850180325509" lon="12.246672474975606"><ele>281.0</ele><time>2026-04-18T09:09:11.999Z</time></trkpt><trkpt lat="43.44843084364886" lon="12.246633942148845"><ele>281.0</ele><time>2026-04-18T09:09:14.999Z</time></trkpt><trkpt lat="43.448359911430494" lon="12.246594935072416"><ele>281.0</ele><time>2026-04-18T09:09:17.999Z</time></trkpt><trkpt lat="43.44828845960335" lon="12.24657782103406"><ele>281.0</ele><time>2026-04-18T09:09:20.999Z</time></trkpt><trkpt lat="43.44820700894938" lon="12.246540316977113"><ele>281.0</ele><time>2026-04-18T09:09:23.999Z</time></trkpt><trkpt lat="43.448144038385976" lon="12.24648643687856"><ele>281.0</ele><time>2026-04-18T09:09:26.999Z</time></trkpt><trkpt lat="43.44808355924539" lon="12.246421998243695"><ele>281.0</ele><time>2026-04-18T09:09:29.999Z</time></trkpt><trkpt lat="43.44802617377288" lon="12.24633607161456"><ele>280.83333333333337</ele><time>2026-04-18T09:09:32.999Z</time></trkpt><trkpt lat="43.447959434112356" lon="12.246256496933006"><ele>280.6666666666667</ele><time>2026-04-18T09:09:36.999Z</time></trkpt><trkpt lat="43.44789402791912" lon="12.24620409836379"><ele>280.5</ele><time>2026-04-18T09:09:39.999Z</time></trkpt><trkpt lat="43.4478390746802" lon="12.24614848624978"><ele>280.3333333333333</ele><time>2026-04-18T09:09:42.999Z</time></trkpt><trkpt lat="43.44777265783581" lon="12.246097966478372"><ele>280.16666666666663</ele><time>2026-04-18T09:09:45.999Z</time></trkpt><trkpt lat="43.44771583174793" lon="12.246027973461764"><ele>280.0</ele><time>2026-04-18T09:09:48.999Z</time></trkpt><trkpt lat="43.4476627625986" lon="12.245957802224558"><ele>280.0</ele><time>2026-04-18T09:09:51.999Z</time></trkpt><trkpt lat="43.44762792219493" lon="12.245870884599547"><ele>280.0</ele><time>2026-04-18T09:09:54.999Z</time></trkpt><trkpt lat="43.44758576747965" lon="12.245786578821965"><ele>280.0</ele><time>2026-04-18T09:09:57.999Z</time></trkpt><trkpt lat="43.44755364806523" lon="12.245683854687496"><ele>280.0</ele><time>2026-04-18T09:10:01.999Z</time></trkpt><trkpt lat="43.447512821188475" lon="12.24560410645779"><ele>280.0</ele><time>2026-04-18T09:10:05Z</time></trkpt><trkpt lat="43.447456757996484" lon="12.245547053861339"><ele>280.0</ele><time>2026-04-18T09:10:08Z</time></trkpt><trkpt lat="43.44737886743469" lon="12.245527094866095"><ele>280.0</ele><time>2026-04-18T09:10:12Z</time></trkpt><trkpt lat="43.44731396378048" lon="12.245551789144324"><ele>279.5</ele><time>2026-04-18T09:10:14Z</time></trkpt><trkpt lat="43.44725240099066" lon="12.245590131176495"><ele>279.0</ele><time>2026-04-18T09:10:17Z</time></trkpt><trkpt lat="43.44719705811591" lon="12.245547356726846"><ele>278.5</ele><time>2026-04-18T09:10:22Z</time></trkpt><trkpt lat="43.447119818369714" lon="12.245497253214117"><ele>278.0</ele><time>2026-04-18T09:10:26Z</time></trkpt><trkpt lat="43.44706840956559" lon="12.245386583491703"><ele>277.5</ele><time>2026-04-18T09:10:28Z</time></trkpt><trkpt lat="43.44706632253207" lon="12.245261491047403"><ele>277.0</ele><time>2026-04-18T09:10:30Z</time></trkpt><trkpt lat="43.447056246878404" lon="12.245109429322573"><ele>277.0</ele><time>2026-04-18T09:10:33Z</time></trkpt><trkpt lat="43.447075128043195" lon="12.245022800731915"><ele>277.0</ele><time>2026-04-18T09:10:35Z</time></trkpt><trkpt lat="43.44705891959566" lon="12.244908910951319"><ele>277.0</ele><time>2026-04-18T09:10:38Z</time></trkpt><trkpt lat="43.44700281216779" lon="12.244840032765929"><ele>277.0</ele><time>2026-04-18T09:10:41Z</time></trkpt><trkpt lat="43.446971849231716" lon="12.244732609714482"><ele>277.0</ele><time>2026-04-18T09:10:44Z</time></trkpt><trkpt lat="43.446928734816055" lon="12.244648765569117"><ele>277.0</ele><time>2026-04-18T09:10:47Z</time></trkpt><trkpt lat="43.44687704904468" lon="12.244577912528197"><ele>276.5</ele><time>2026-04-18T09:10:50Z</time></trkpt><trkpt lat="43.44681814563332" lon="12.244494694366937"><ele>276.0</ele><time>2026-04-18T09:10:53Z</time></trkpt><trkpt lat="43.44674785473969" lon="12.244446598896255"><ele>275.5</ele><time>2026-04-18T09:10:56Z</time></trkpt><trkpt lat="43.4466835825774" lon="12.24440392513416"><ele>275.0</ele><time>2026-04-18T09:10:59Z</time></trkpt><trkpt lat="43.446619705317076" lon="12.244341463201666"><ele>274.5</ele><time>2026-04-18T09:11:02Z</time></trkpt><trkpt lat="43.44654563453029" lon="12.244300203360416"><ele>274.0</ele><time>2026-04-18T09:11:04.999Z</time></trkpt><trkpt lat="43.446503843435934" lon="12.244234148254602"><ele>274.00000000000006</ele><time>2026-04-18T09:11:07.999Z</time></trkpt><trkpt lat="43.44647881703671" lon="12.24413837434545"><ele>274.0</ele><time>2026-04-18T09:11:10.999Z</time></trkpt><trkpt lat="43.446494327357634" lon="12.244052945290468"><ele>274.0</ele><time>2026-04-18T09:11:12.999Z</time></trkpt><trkpt lat="43.44653864183878" lon="12.24396570802537"><ele>274.0</ele><time>2026-04-18T09:11:15.999Z</time></trkpt><trkpt lat="43.44657711656063" lon="12.243865840825377"><ele>274.0</ele><time>2026-04-18T09:11:18.999Z</time></trkpt><trkpt lat="43.44657381124819" lon="12.243762685145015"><ele>274.00000000000006</ele><time>2026-04-18T09:11:21.999Z</time></trkpt><trkpt lat="43.44654553102859" lon="12.243665481266039"><ele>274.0</ele><time>2026-04-18T09:11:24.999Z</time></trkpt><trkpt lat="43.44648790808034" lon="12.243566467265861"><ele>273.8333333333333</ele><time>2026-04-18T09:11:27.999Z</time></trkpt><trkpt lat="43.446428521202655" lon="12.243487041897982"><ele>273.66666666666663</ele><time>2026-04-18T09:11:30.999Z</time></trkpt><trkpt lat="43.44637109787892" lon="12.243409632858514"><ele>273.5</ele><time>2026-04-18T09:11:33.999Z</time></trkpt><trkpt lat="43.44632658511343" lon="12.24333642306258"><ele>273.3333333333333</ele><time>2026-04-18T09:11:36.999Z</time></trkpt><trkpt lat="43.446275496345585" lon="12.243256752550908"><ele>273.1666666666667</ele><time>2026-04-18T09:11:39.999Z</time></trkpt><trkpt lat="43.44623059273944" lon="12.243170386100742"><ele>273.0</ele><time>2026-04-18T09:11:42.999Z</time></trkpt><trkpt lat="43.446193488071586" lon="12.243083459997873"><ele>273.0</ele><time>2026-04-18T09:11:45.999Z</time></trkpt><trkpt lat="43.446145310010344" lon="12.243019452963537"><ele>273.0</ele><time>2026-04-18T09:11:48.999Z</time></trkpt><trkpt lat="43.446099181767394" lon="12.242953589154755"><ele>273.0</ele><time>2026-04-18T09:11:51.999Z</time></trkpt><trkpt lat="43.44604612984059" lon="12.242886878795266"><ele>273.0</ele><time>2026-04-18T09:11:54.999Z</time></trkpt><trkpt lat="43.446001512781976" lon="12.242813667577503"><ele>273.0</ele><time>2026-04-18T09:11:57.999Z</time></trkpt><trkpt lat="43.445960331559256" lon="12.242720234102366"><ele>273.0</ele><time>2026-04-18T09:12:00.999Z</time></trkpt><trkpt lat="43.44590849510675" lon="12.242635433521654"><ele>273.0</ele><time>2026-04-18T09:12:03.999Z</time></trkpt><trkpt lat="43.44587264453937" lon="12.242563093129787"><ele>273.0</ele><time>2026-04-18T09:12:05.999Z</time></trkpt><trkpt lat="43.44581681761046" lon="12.242482908742645"><ele>273.0</ele><time>2026-04-18T09:12:10Z</time></trkpt><trkpt lat="43.44578070221923" lon="12.242404463103277"><ele>273.0</ele><time>2026-04-18T09:12:12Z</time></trkpt><trkpt lat="43.44573656231663" lon="12.242333283461464"><ele>273.0</ele><time>2026-04-18T09:12:15Z</time></trkpt><trkpt lat="43.445689705088526" lon="12.24227196407374"><ele>273.0</ele><time>2026-04-18T09:12:18Z</time></trkpt><trkpt lat="43.44564493306554" lon="12.242199996871854"><ele>273.0</ele><time>2026-04-18T09:12:20Z</time></trkpt><trkpt lat="43.44556841158004" lon="12.242159930066881"><ele>273.0</ele><time>2026-04-18T09:12:23Z</time></trkpt><trkpt lat="43.44550768875711" lon="12.242119570385373"><ele>273.1666666666667</ele><time>2026-04-18T09:12:25Z</time></trkpt><trkpt lat="43.44544566326857" lon="12.242063685389336"><ele>273.3333333333333</ele><time>2026-04-18T09:12:28Z</time></trkpt><trkpt lat="43.44536454784084" lon="12.242026661981567"><ele>273.5</ele><time>2026-04-18T09:12:31Z</time></trkpt><trkpt lat="43.44529144785101" lon="12.241966484409506"><ele>273.66666666666663</ele><time>2026-04-18T09:12:34Z</time></trkpt><trkpt lat="43.445224218398714" lon="12.241902869962356"><ele>273.8333333333333</ele><time>2026-04-18T09:12:38Z</time></trkpt><trkpt lat="43.44516814752654" lon="12.241856382523022"><ele>274.0</ele><time>2026-04-18T09:12:41Z</time></trkpt><trkpt lat="43.44511940509151" lon="12.241782220055041"><ele>274.00000000000006</ele><time>2026-04-18T09:12:44Z</time></trkpt><trkpt lat="43.44507115525341" lon="12.241701593614073"><ele>274.0</ele><time>2026-04-18T09:12:47Z</time></trkpt><trkpt lat="43.44501550576445" lon="12.241650796222187"><ele>274.0</ele><time>2026-04-18T09:12:49Z</time></trkpt><trkpt lat="43.444955990473694" lon="12.24161059589667"><ele>274.0</ele><time>2026-04-18T09:12:51Z</time></trkpt><trkpt lat="43.44489203135145" lon="12.241562797408275"><ele>274.0</ele><time>2026-04-18T09:12:54Z</time></trkpt><trkpt lat="43.44483338926282" lon="12.241522498067196"><ele>274.00000000000006</ele><time>2026-04-18T09:12:57Z</time></trkpt><trkpt lat="43.44478078671145" lon="12.241473293859386"><ele>274.0</ele><time>2026-04-18T09:13:00Z</time></trkpt><trkpt lat="43.44471713153455" lon="12.241488511906713"><ele>273.8333333333333</ele><time>2026-04-18T09:13:05Z</time></trkpt><trkpt lat="43.4446594787661" lon="12.241407408654"><ele>273.66666666666663</ele><time>2026-04-18T09:13:25.999Z</time></trkpt><trkpt lat="43.444599572428" lon="12.241357065722386"><ele>273.5</ele><time>2026-04-18T09:13:28.999Z</time></trkpt><trkpt lat="43.44454636786911" lon="12.241290515933182"><ele>273.3333333333333</ele><time>2026-04-18T09:13:31.999Z</time></trkpt><trkpt lat="43.44444957935925" lon="12.241241746126136"><ele>273.1666666666667</ele><time>2026-04-18T09:13:34.999Z</time></trkpt><trkpt lat="43.4443641377102" lon="12.241182870485696"><ele>273.0</ele><time>2026-04-18T09:13:37.999Z</time></trkpt><trkpt lat="43.4442924478123" lon="12.241175249528224"><ele>273.2857142857143</ele><time>2026-04-18T09:13:39.999Z</time></trkpt><trkpt lat="43.44422868974626" lon="12.241145953707582"><ele>273.57142857142856</ele><time>2026-04-18T09:13:41.999Z</time></trkpt><trkpt lat="43.444167449349294" lon="12.241111183381198"><ele>273.8571428571429</ele><time>2026-04-18T09:13:43.999Z</time></trkpt><trkpt lat="43.44408271584904" lon="12.241054468860021"><ele>274.1428571428571</ele><time>2026-04-18T09:13:46.999Z</time></trkpt><trkpt lat="43.44400855936636" lon="12.241042572977106"><ele>274.42857142857144</ele><time>2026-04-18T09:13:49.999Z</time></trkpt><trkpt lat="43.44394333096322" lon="12.241048832679851"><ele>274.7142857142857</ele><time>2026-04-18T09:13:52.999Z</time></trkpt><trkpt lat="43.44386606328333" lon="12.241058921852956"><ele>275.0</ele><time>2026-04-18T09:13:54.999Z</time></trkpt><trkpt lat="43.443792109881855" lon="12.241077204631123"><ele>275.33333333333337</ele><time>2026-04-18T09:13:56.999Z</time></trkpt><trkpt lat="43.443723639781275" lon="12.24108078587946"><ele>275.6666666666667</ele><time>2026-04-18T09:13:58.999Z</time></trkpt><trkpt lat="43.44364316556692" lon="12.241109535118897"><ele>276.0</ele><time>2026-04-18T09:14:01.999Z</time></trkpt><trkpt lat="43.443558251301276" lon="12.241133389816772"><ele>276.3333333333333</ele><time>2026-04-18T09:14:04.999Z</time></trkpt><trkpt lat="43.443478534954956" lon="12.241173355805104"><ele>276.66666666666663</ele><time>2026-04-18T09:14:07.999Z</time></trkpt><trkpt lat="43.44339241657478" lon="12.24120573758744"><ele>277.0</ele><time>2026-04-18T09:14:10.999Z</time></trkpt><trkpt lat="43.44332186902557" lon="12.24126615619612"><ele>277.0</ele><time>2026-04-18T09:14:13.999Z</time></trkpt><trkpt lat="43.4432798721523" lon="12.241354642638495"><ele>277.0</ele><time>2026-04-18T09:14:17Z</time></trkpt><trkpt lat="43.44323600366427" lon="12.241455702961328"><ele>277.0</ele><time>2026-04-18T09:14:20Z</time></trkpt><trkpt lat="43.44320358208267" lon="12.241550271432034"><ele>277.0</ele><time>2026-04-18T09:14:23Z</time></trkpt><trkpt lat="43.44316153419692" lon="12.241636795184338"><ele>277.0</ele><time>2026-04-18T09:14:27Z</time></trkpt><trkpt lat="43.44316942690785" lon="12.241745149978698"><ele>277.0</ele><time>2026-04-18T09:14:30Z</time></trkpt><trkpt lat="43.44319238231022" lon="12.241829549146514"><ele>276.66666666666663</ele><time>2026-04-18T09:14:32Z</time></trkpt><trkpt lat="43.44321647552723" lon="12.241911916091242"><ele>276.3333333333333</ele><time>2026-04-18T09:14:34Z</time></trkpt><trkpt lat="43.44324698853043" lon="12.242028866653348"><ele>276.0</ele><time>2026-04-18T09:14:37Z</time></trkpt><trkpt lat="43.44327861038032" lon="12.2421292670567"><ele>275.6666666666667</ele><time>2026-04-18T09:14:40Z</time></trkpt><trkpt lat="43.443324590512916" lon="12.242225096299341"><ele>275.33333333333337</ele><time>2026-04-18T09:14:43Z</time></trkpt><trkpt lat="43.44336749975293" lon="12.242319017131274"><ele>275.0</ele><time>2026-04-18T09:14:46Z</time></trkpt><trkpt lat="43.44338974131271" lon="12.242429218318026"><ele>274.8571428571429</ele><time>2026-04-18T09:14:49Z</time></trkpt><trkpt lat="43.443404040691796" lon="12.242520843331718"><ele>274.7142857142857</ele><time>2026-04-18T09:14:52Z</time></trkpt><trkpt lat="43.44342374410174" lon="12.242615860375329"><ele>274.57142857142856</ele><time>2026-04-18T09:14:55Z</time></trkpt><trkpt lat="43.443447639220196" lon="12.242709372423061"><ele>274.42857142857144</ele><time>2026-04-18T09:14:59Z</time></trkpt><trkpt lat="43.44349545193001" lon="12.24280355059983"><ele>274.2857142857143</ele><time>2026-04-18T09:15:02Z</time></trkpt><trkpt lat="43.443533169071706" lon="12.242883421433298"><ele>274.14285714285717</ele><time>2026-04-18T09:15:05Z</time></trkpt><trkpt lat="43.44354232654063" lon="12.242983443330319"><ele>274.0</ele><time>2026-04-18T09:15:08Z</time></trkpt><trkpt lat="43.44355865065411" lon="12.243089361280344"><ele>274.00000000000006</ele><time>2026-04-18T09:15:10.999Z</time></trkpt><trkpt lat="43.44358031906727" lon="12.243174569350511"><ele>274.0</ele><time>2026-04-18T09:15:12.999Z</time></trkpt><trkpt lat="43.44356575070259" lon="12.243288496345116"><ele>274.0</ele><time>2026-04-18T09:15:15.999Z</time></trkpt><trkpt lat="43.44355051689638" lon="12.2433830015465"><ele>274.0</ele><time>2026-04-18T09:15:18.999Z</time></trkpt><trkpt lat="43.4435197456942" lon="12.243471391071408"><ele>274.0</ele><time>2026-04-18T09:15:21.999Z</time></trkpt><trkpt lat="43.44351297367154" lon="12.243577283424457"><ele>274.00000000000006</ele><time>2026-04-18T09:15:24.999Z</time></trkpt><trkpt lat="43.44351405946732" lon="12.243667690734238"><ele>274.0</ele><time>2026-04-18T09:15:26.999Z</time></trkpt><trkpt lat="43.443506331169566" lon="12.243784169171317"><ele>274.0</ele><time>2026-04-18T09:15:29.999Z</time></trkpt><trkpt lat="43.44348649554215" lon="12.2438664983619"><ele>274.0</ele><time>2026-04-18T09:15:31.999Z</time></trkpt><trkpt lat="43.44344208993855" lon="12.24397105088862"><ele>274.0</ele><time>2026-04-18T09:15:34.999Z</time></trkpt><trkpt lat="43.44339734327267" lon="12.244063803418527"><ele>274.0</ele><time>2026-04-18T09:15:37.999Z</time></trkpt><trkpt lat="43.44336054128156" lon="12.244142460614873"><ele>274.0</ele><time>2026-04-18T09:15:40.999Z</time></trkpt><trkpt lat="43.44332089197512" lon="12.244223945242677"><ele>274.0</ele><time>2026-04-18T09:15:43.999Z</time></trkpt><trkpt lat="43.443274275233684" lon="12.244319247422935"><ele>274.0</ele><time>2026-04-18T09:15:46.999Z</time></trkpt><trkpt lat="43.443211756987616" lon="12.244396991092428"><ele>274.0</ele><time>2026-04-18T09:15:50.999Z</time></trkpt><trkpt lat="43.44315374926143" lon="12.244498473588669"><ele>274.0</ele><time>2026-04-18T09:15:53.999Z</time></trkpt><trkpt lat="43.443095980606" lon="12.244556289402269"><ele>274.0</ele><time>2026-04-18T09:15:56.999Z</time></trkpt><trkpt lat="43.44304903570373" lon="12.244626940983611"><ele>274.0</ele><time>2026-04-18T09:15:59.999Z</time></trkpt><trkpt lat="43.44300459298866" lon="12.244712790153915"><ele>274.0</ele><time>2026-04-18T09:16:02.999Z</time></trkpt><trkpt lat="43.44294993313619" lon="12.244792989613497"><ele>273.5</ele><time>2026-04-18T09:16:05.999Z</time></trkpt><trkpt lat="43.442894240899214" lon="12.24488641290582"><ele>273.0</ele><time>2026-04-18T09:16:09.999Z</time></trkpt><trkpt lat="43.442850591976494" lon="12.244966340727053"><ele>272.5</ele><time>2026-04-18T09:16:12.999Z</time></trkpt><trkpt lat="43.44279853171592" lon="12.245063089283297"><ele>272.0</ele><time>2026-04-18T09:16:15.999Z</time></trkpt><trkpt lat="43.442759491977576" lon="12.24514431970052"><ele>271.5</ele><time>2026-04-18T09:16:18.999Z</time></trkpt><trkpt lat="43.44272604854213" lon="12.245237810889241"><ele>271.0</ele><time>2026-04-18T09:16:22Z</time></trkpt><trkpt lat="43.442694558614214" lon="12.245330734934061"><ele>271.0</ele><time>2026-04-18T09:16:25Z</time></trkpt><trkpt lat="43.442662662618986" lon="12.24541604639066"><ele>271.0</ele><time>2026-04-18T09:16:28Z</time></trkpt><trkpt lat="43.442641113770684" lon="12.24550649339187"><ele>271.0</ele><time>2026-04-18T09:16:31Z</time></trkpt><trkpt lat="43.44259583867214" lon="12.24559110932135"><ele>271.0</ele><time>2026-04-18T09:16:34Z</time></trkpt><trkpt lat="43.44256435421404" lon="12.245674623893896"><ele>271.0</ele><time>2026-04-18T09:16:37Z</time></trkpt><trkpt lat="43.44254363706168" lon="12.245769958691355"><ele>271.0</ele><time>2026-04-18T09:16:40Z</time></trkpt><trkpt lat="43.44251629287555" lon="12.24585733744393"><ele>271.0</ele><time>2026-04-18T09:16:43Z</time></trkpt><trkpt lat="43.442502271200084" lon="12.245957152042914"><ele>271.0</ele><time>2026-04-18T09:16:46Z</time></trkpt><trkpt lat="43.44249228785587" lon="12.246055353377207"><ele>271.0</ele><time>2026-04-18T09:16:49Z</time></trkpt><trkpt lat="43.44247176591661" lon="12.246165067543544"><ele>271.0</ele><time>2026-04-18T09:16:53Z</time></trkpt><trkpt lat="43.442444443566195" lon="12.246269660549011"><ele>271.0</ele><time>2026-04-18T09:16:56Z</time></trkpt><trkpt lat="43.442415514268546" lon="12.246366242491893"><ele>271.0</ele><time>2026-04-18T09:16:59Z</time></trkpt><trkpt lat="43.442391037348116" lon="12.246449113902939"><ele>271.0</ele><time>2026-04-18T09:17:02Z</time></trkpt><trkpt lat="43.44236513499836" lon="12.24653049834044"><ele>271.0</ele><time>2026-04-18T09:17:05Z</time></trkpt><trkpt lat="43.44235846731298" lon="12.246624555366479"><ele>271.3333333333333</ele><time>2026-04-18T09:17:08Z</time></trkpt><trkpt lat="43.44234509818001" lon="12.246732210755859"><ele>271.66666666666663</ele><time>2026-04-18T09:17:11Z</time></trkpt><trkpt lat="43.442328481361564" lon="12.24685132615984"><ele>272.0</ele><time>2026-04-18T09:17:13.999Z</time></trkpt><trkpt lat="43.442282097177525" lon="12.246927371379263"><ele>272.3333333333333</ele><time>2026-04-18T09:17:16.999Z</time></trkpt><trkpt lat="43.44224116494306" lon="12.247015584558529"><ele>272.6666666666667</ele><time>2026-04-18T09:17:19.999Z</time></trkpt><trkpt lat="43.442243066065295" lon="12.247108472289662"><ele>273.0</ele><time>2026-04-18T09:17:22.999Z</time></trkpt><trkpt lat="43.442202067248175" lon="12.247191322805774"><ele>273.5</ele><time>2026-04-18T09:17:25.999Z</time></trkpt><trkpt lat="43.442189433450324" lon="12.247294559601041"><ele>274.0</ele><time>2026-04-18T09:17:28.999Z</time></trkpt><trkpt lat="43.44217877177611" lon="12.247389699857019"><ele>274.5</ele><time>2026-04-18T09:17:31.999Z</time></trkpt><trkpt lat="43.442153691978774" lon="12.247490062518606"><ele>275.0</ele><time>2026-04-18T09:17:34.999Z</time></trkpt><trkpt lat="43.44213499564119" lon="12.247598957965284"><ele>275.5</ele><time>2026-04-18T09:17:37.999Z</time></trkpt><trkpt lat="43.44212025259572" lon="12.247711540819573"><ele>276.0</ele><time>2026-04-18T09:17:40.999Z</time></trkpt><trkpt lat="43.442068344178594" lon="12.247806168378318"><ele>276.0</ele><time>2026-04-18T09:17:46.999Z</time></trkpt><trkpt lat="43.442044912023654" lon="12.247901874341478"><ele>276.0</ele><time>2026-04-18T09:17:49.999Z</time></trkpt><trkpt lat="43.442034378628975" lon="12.248028577419719"><ele>276.0</ele><time>2026-04-18T09:17:52.999Z</time></trkpt><trkpt lat="43.442013312601404" lon="12.248114399934689"><ele>276.0</ele><time>2026-04-18T09:17:54.999Z</time></trkpt><trkpt lat="43.441979225043845" lon="12.248208141563106"><ele>276.0</ele><time>2026-04-18T09:17:58.999Z</time></trkpt><trkpt lat="43.44193766702448" lon="12.248310775266933"><ele>276.0</ele><time>2026-04-18T09:18:01.999Z</time></trkpt><trkpt lat="43.44190353639824" lon="12.248404211198975"><ele>276.5</ele><time>2026-04-18T09:18:04.999Z</time></trkpt><trkpt lat="43.44187090435983" lon="12.24848255679205"><ele>277.0</ele><time>2026-04-18T09:18:07.999Z</time></trkpt><trkpt lat="43.44181349121425" lon="12.248569632328351"><ele>277.5</ele><time>2026-04-18T09:18:10.999Z</time></trkpt><trkpt lat="43.44175994778622" lon="12.248653169880345"><ele>278.0</ele><time>2026-04-18T09:18:13.999Z</time></trkpt><trkpt lat="43.4416817750348" lon="12.248720739566743"><ele>278.5</ele><time>2026-04-18T09:18:16.999Z</time></trkpt><trkpt lat="43.44161717721394" lon="12.248804747821746"><ele>279.0</ele><time>2026-04-18T09:18:19.999Z</time></trkpt><trkpt lat="43.441558448634446" lon="12.248840130345297"><ele>279.0</ele><time>2026-04-18T09:18:21.998Z</time></trkpt><trkpt lat="43.441495267715325" lon="12.248888542536996"><ele>279.0</ele><time>2026-04-18T09:18:23.998Z</time></trkpt><trkpt lat="43.44142045842557" lon="12.2489644317439"><ele>279.0</ele><time>2026-04-18T09:18:27Z</time></trkpt><trkpt lat="43.441354313326656" lon="12.249054349377607"><ele>279.0</ele><time>2026-04-18T09:18:30Z</time></trkpt><trkpt lat="43.441299346957685" lon="12.249102566698173"><ele>279.0</ele><time>2026-04-18T09:18:33Z</time></trkpt><trkpt lat="43.441228264649546" lon="12.249169776199478"><ele>279.0</ele><time>2026-04-18T09:18:36Z</time></trkpt><trkpt lat="43.441153676204884" lon="12.249220790367685"><ele>278.8333333333333</ele><time>2026-04-18T09:18:39Z</time></trkpt><trkpt lat="43.441075370730765" lon="12.249279940249236"><ele>278.6666666666667</ele><time>2026-04-18T09:18:42Z</time></trkpt><trkpt lat="43.44099568830557" lon="12.249312704144712"><ele>278.5</ele><time>2026-04-18T09:18:45Z</time></trkpt><trkpt lat="43.440923575927926" lon="12.249296895758057"><ele>278.33333333333337</ele><time>2026-04-18T09:18:48Z</time></trkpt><trkpt lat="43.44085661079939" lon="12.249282939527102"><ele>278.1666666666667</ele><time>2026-04-18T09:18:51Z</time></trkpt><trkpt lat="43.440786018090385" lon="12.24928466524347"><ele>278.0</ele><time>2026-04-18T09:18:54Z</time></trkpt><trkpt lat="43.44069942716105" lon="12.249262570292824"><ele>278.0</ele><time>2026-04-18T09:18:57Z</time></trkpt><trkpt lat="43.44061060163367" lon="12.24924591207527"><ele>278.0</ele><time>2026-04-18T09:19:00Z</time></trkpt><trkpt lat="43.44053871998604" lon="12.249249266608446"><ele>278.0</ele><time>2026-04-18T09:19:03Z</time></trkpt><trkpt lat="43.44047407287929" lon="12.249210882536198"><ele>278.0</ele><time>2026-04-18T09:19:06Z</time></trkpt><trkpt lat="43.440406132519826" lon="12.249153981897479"><ele>278.0</ele><time>2026-04-18T09:19:09Z</time></trkpt><trkpt lat="43.44033941510542" lon="12.249113277505783"><ele>278.0</ele><time>2026-04-18T09:19:12Z</time></trkpt><trkpt lat="43.44025650833008" lon="12.249060435536794"><ele>278.33333333333337</ele><time>2026-04-18T09:19:14.999Z</time></trkpt><trkpt lat="43.44017722856717" lon="12.249023650484444"><ele>278.6666666666667</ele><time>2026-04-18T09:19:17.999Z</time></trkpt><trkpt lat="43.440109550168245" lon="12.248955995556782"><ele>279.0</ele><time>2026-04-18T09:19:20.999Z</time></trkpt><trkpt lat="43.44003831720681" lon="12.248902085715441"><ele>279.3333333333333</ele><time>2026-04-18T09:19:23.999Z</time></trkpt><trkpt lat="43.439981034186474" lon="12.248827029863818"><ele>279.66666666666663</ele><time>2026-04-18T09:19:26.999Z</time></trkpt><trkpt lat="43.439939952612264" lon="12.248761166667842"><ele>280.0</ele><time>2026-04-18T09:19:28.999Z</time></trkpt><trkpt lat="43.439867475689695" lon="12.248717031350065"><ele>280.0</ele><time>2026-04-18T09:19:31.999Z</time></trkpt><trkpt lat="43.439797903656874" lon="12.248651614220071"><ele>280.0</ele><time>2026-04-18T09:19:34.999Z</time></trkpt><trkpt lat="43.43973810954673" lon="12.248585950320672"><ele>280.0</ele><time>2026-04-18T09:19:37.999Z</time></trkpt><trkpt lat="43.43965396124085" lon="12.248566874971551"><ele>280.0</ele><time>2026-04-18T09:19:40.999Z</time></trkpt><trkpt lat="43.43958359575328" lon="12.248506965936832"><ele>280.0</ele><time>2026-04-18T09:19:43.999Z</time></trkpt><trkpt lat="43.43950861271475" lon="12.24848243456936"><ele>280.0</ele><time>2026-04-18T09:19:46.999Z</time></trkpt><trkpt lat="43.43945623186902" lon="12.248430086409543"><ele>280.0</ele><time>2026-04-18T09:19:48.999Z</time></trkpt><trkpt lat="43.439395050501375" lon="12.248357808196843"><ele>280.0</ele><time>2026-04-18T09:19:51.999Z</time></trkpt><trkpt lat="43.43933905251211" lon="12.248316065087566"><ele>280.0</ele><time>2026-04-18T09:19:53.999Z</time></trkpt><trkpt lat="43.439261411469" lon="12.248285878942976"><ele>280.0</ele><time>2026-04-18T09:19:56.999Z</time></trkpt><trkpt lat="43.439198400668346" lon="12.248276089889687"><ele>280.0</ele><time>2026-04-18T09:19:58.999Z</time></trkpt><trkpt lat="43.43912432618177" lon="12.248235081821706"><ele>280.0</ele><time>2026-04-18T09:20:02.999Z</time></trkpt><trkpt lat="43.43905297770654" lon="12.248134647486921"><ele>279.8333333333333</ele><time>2026-04-18T09:20:05.999Z</time></trkpt><trkpt lat="43.43898038458303" lon="12.248075892993633"><ele>279.66666666666663</ele><time>2026-04-18T09:20:08.999Z</time></trkpt><trkpt lat="43.43892008864349" lon="12.2480392734639"><ele>279.5</ele><time>2026-04-18T09:20:10.999Z</time></trkpt><trkpt lat="43.43885010391455" lon="12.24797686518265"><ele>279.3333333333333</ele><time>2026-04-18T09:20:13.999Z</time></trkpt><trkpt lat="43.43878469958823" lon="12.247920102915927"><ele>279.1666666666667</ele><time>2026-04-18T09:20:16.999Z</time></trkpt><trkpt lat="43.438726145088545" lon="12.247855738932643"><ele>279.0</ele><time>2026-04-18T09:20:19.999Z</time></trkpt><trkpt lat="43.43867256035096" lon="12.247789395216833"><ele>279.0</ele><time>2026-04-18T09:20:25.998Z</time></trkpt><trkpt lat="43.43865182717712" lon="12.247702440483582"><ele>279.0</ele><time>2026-04-18T09:20:28.998Z</time></trkpt><trkpt lat="43.43857295620076" lon="12.247693189692141"><ele>279.0</ele><time>2026-04-18T09:20:31.998Z</time></trkpt><trkpt lat="43.43850305972882" lon="12.247672463503413"><ele>279.0</ele><time>2026-04-18T09:20:35Z</time></trkpt><trkpt lat="43.43843048847213" lon="12.247620038557823"><ele>279.0</ele><time>2026-04-18T09:20:38Z</time></trkpt><trkpt lat="43.43835447843603" lon="12.247573804959975"><ele>279.0</ele><time>2026-04-18T09:20:41Z</time></trkpt><trkpt lat="43.438278787313955" lon="12.247471169167763"><ele>279.0</ele><time>2026-04-18T09:20:44Z</time></trkpt><trkpt lat="43.438230956702455" lon="12.24739124667235"><ele>279.0</ele><time>2026-04-18T09:20:46Z</time></trkpt><trkpt lat="43.43815120427032" lon="12.247331166015675"><ele>279.0</ele><time>2026-04-18T09:20:49Z</time></trkpt><trkpt lat="43.4380670377484" lon="12.247300187906967"><ele>279.0</ele><time>2026-04-18T09:20:52Z</time></trkpt><trkpt lat="43.43796558921507" lon="12.24727512277486"><ele>279.0</ele><time>2026-04-18T09:20:55Z</time></trkpt><trkpt lat="43.43790008937133" lon="12.247257586075667"><ele>279.0</ele><time>2026-04-18T09:20:57Z</time></trkpt><trkpt lat="43.43783194268323" lon="12.247232617349077"><ele>278.5</ele><time>2026-04-18T09:21:00Z</time></trkpt><trkpt lat="43.437750326544084" lon="12.247213995687463"><ele>278.0</ele><time>2026-04-18T09:21:03Z</time></trkpt><trkpt lat="43.4376738752959" lon="12.24721284256079"><ele>277.5</ele><time>2026-04-18T09:21:06Z</time></trkpt><trkpt lat="43.43759643706694" lon="12.247172410745748"><ele>277.0</ele><time>2026-04-18T09:21:09Z</time></trkpt><trkpt lat="43.43753079471138" lon="12.247134981347696"><ele>276.5</ele><time>2026-04-18T09:21:12Z</time></trkpt><trkpt lat="43.437461568598756" lon="12.247114490717628"><ele>276.0</ele><time>2026-04-18T09:21:15Z</time></trkpt><trkpt lat="43.437393558532776" lon="12.247082128429277"><ele>276.0</ele><time>2026-04-18T09:21:17.999Z</time></trkpt><trkpt lat="43.43732272009898" lon="12.247045582692047"><ele>276.0</ele><time>2026-04-18T09:21:20.999Z</time></trkpt><trkpt lat="43.437242605162005" lon="12.24703312897263"><ele>276.0</ele><time>2026-04-18T09:21:23.999Z</time></trkpt><trkpt lat="43.43715760382347" lon="12.247015086110281"><ele>276.0</ele><time>2026-04-18T09:21:26.999Z</time></trkpt><trkpt lat="43.43709719857188" lon="12.246966598568854"><ele>276.0</ele><time>2026-04-18T09:21:29.999Z</time></trkpt><trkpt lat="43.437026775759215" lon="12.24692078925112"><ele>276.0</ele><time>2026-04-18T09:21:32.999Z</time></trkpt><trkpt lat="43.43694908427532" lon="12.246896580128002"><ele>276.0</ele><time>2026-04-18T09:21:35.999Z</time></trkpt><trkpt lat="43.43686760679909" lon="12.246861525707486"><ele>276.0</ele><time>2026-04-18T09:21:38.999Z</time></trkpt><trkpt lat="43.4368009769375" lon="12.246808491503167"><ele>276.0</ele><time>2026-04-18T09:21:41.999Z</time></trkpt><trkpt lat="43.43672395898971" lon="12.246781314995575"><ele>276.0</ele><time>2026-04-18T09:21:45.999Z</time></trkpt><trkpt lat="43.4366470072824" lon="12.24677294996129"><ele>276.0</ele><time>2026-04-18T09:21:48.999Z</time></trkpt><trkpt lat="43.4365581722433" lon="12.246774093638669"><ele>276.0</ele><time>2026-04-18T09:21:51.999Z</time></trkpt><trkpt lat="43.43647571257034" lon="12.246771046083104"><ele>276.0</ele><time>2026-04-18T09:21:54.999Z</time></trkpt><trkpt lat="43.436407804508676" lon="12.24675660282467"><ele>276.0</ele><time>2026-04-18T09:21:57.999Z</time></trkpt><trkpt lat="43.43632099199788" lon="12.246774180019704"><ele>276.0</ele><time>2026-04-18T09:22:00.999Z</time></trkpt><trkpt lat="43.43624892028436" lon="12.246790331623801"><ele>276.0</ele><time>2026-04-18T09:22:03.999Z</time></trkpt><trkpt lat="43.43617789761453" lon="12.246785144807093"><ele>276.0</ele><time>2026-04-18T09:22:05.999Z</time></trkpt><trkpt lat="43.436107506807176" lon="12.246789017239358"><ele>276.0</ele><time>2026-04-18T09:22:09.999Z</time></trkpt><trkpt lat="43.43603767253096" lon="12.246808952457567"><ele>276.0</ele><time>2026-04-18T09:22:12.999Z</time></trkpt><trkpt lat="43.43596668826715" lon="12.246851283164915"><ele>275.8333333333333</ele><time>2026-04-18T09:22:15.999Z</time></trkpt><trkpt lat="43.43589148658034" lon="12.246857725740702"><ele>275.6666666666667</ele><time>2026-04-18T09:22:18.999Z</time></trkpt><trkpt lat="43.43580785394335" lon="12.24687144987983"><ele>275.5</ele><time>2026-04-18T09:22:21.999Z</time></trkpt><trkpt lat="43.43573163356688" lon="12.246888016112454"><ele>275.33333333333337</ele><time>2026-04-18T09:22:24.999Z</time></trkpt><trkpt lat="43.43565114740592" lon="12.246913985594835"><ele>275.1666666666667</ele><time>2026-04-18T09:22:27.998Z</time></trkpt><trkpt lat="43.43557457938394" lon="12.246948469863908"><ele>275.0</ele><time>2026-04-18T09:22:30.998Z</time></trkpt><trkpt lat="43.43550981435575" lon="12.246960259957055"><ele>275.1666666666667</ele><time>2026-04-18T09:22:33.998Z</time></trkpt><trkpt lat="43.435433960239024" lon="12.246947662197732"><ele>275.33333333333337</ele><time>2026-04-18T09:22:36.998Z</time></trkpt><trkpt lat="43.43535956195027" lon="12.246953758131752"><ele>275.5</ele><time>2026-04-18T09:22:40Z</time></trkpt><trkpt lat="43.43528856762236" lon="12.246998549665356"><ele>275.6666666666667</ele><time>2026-04-18T09:22:43Z</time></trkpt><trkpt lat="43.43520535260165" lon="12.24702020082209"><ele>275.8333333333333</ele><time>2026-04-18T09:22:46Z</time></trkpt><trkpt lat="43.43513232634928" lon="12.247063660693815"><ele>276.0</ele><time>2026-04-18T09:22:49Z</time></trkpt><trkpt lat="43.435052031486826" lon="12.247087084565266"><ele>276.0</ele><time>2026-04-18T09:22:52Z</time></trkpt><trkpt lat="43.43497126484558" lon="12.247072637590364"><ele>276.0</ele><time>2026-04-18T09:22:55Z</time></trkpt><trkpt lat="43.434899207013984" lon="12.247064771376879"><ele>276.0</ele><time>2026-04-18T09:22:58Z</time></trkpt><trkpt lat="43.43481583836181" lon="12.247059530513983"><ele>276.0</ele><time>2026-04-18T09:23:01Z</time></trkpt><trkpt lat="43.43472847282066" lon="12.247067805048884"><ele>276.0</ele><time>2026-04-18T09:23:04Z</time></trkpt><trkpt lat="43.43464705913789" lon="12.247079802117922"><ele>276.0</ele><time>2026-04-18T09:23:07Z</time></trkpt><trkpt lat="43.434558538010805" lon="12.247093562933987"><ele>275.8333333333333</ele><time>2026-04-18T09:23:10Z</time></trkpt><trkpt lat="43.434484729087345" lon="12.24711481824869"><ele>275.6666666666667</ele><time>2026-04-18T09:23:13Z</time></trkpt><trkpt lat="43.43440964875838" lon="12.247134852289028"><ele>275.5</ele><time>2026-04-18T09:23:16Z</time></trkpt><trkpt lat="43.43434626819004" lon="12.247200716112355"><ele>275.33333333333337</ele><time>2026-04-18T09:23:19Z</time></trkpt><trkpt lat="43.43427738646696" lon="12.247224074664512"><ele>275.1666666666667</ele><time>2026-04-18T09:23:21.999Z</time></trkpt><trkpt lat="43.43419030483729" lon="12.247219965491428"><ele>275.0</ele><time>2026-04-18T09:23:24.999Z</time></trkpt><trkpt lat="43.43412712538238" lon="12.247225749948782"><ele>275.0</ele><time>2026-04-18T09:23:26.999Z</time></trkpt><trkpt lat="43.43405373563038" lon="12.247225358972754"><ele>275.0</ele><time>2026-04-18T09:23:29.999Z</time></trkpt><trkpt lat="43.43396111553527" lon="12.247215685846525"><ele>275.0</ele><time>2026-04-18T09:23:32.999Z</time></trkpt><trkpt lat="43.43387480850048" lon="12.247197026028823"><ele>275.0</ele><time>2026-04-18T09:23:35.999Z</time></trkpt><trkpt lat="43.43379735494165" lon="12.247187300861505"><ele>275.0</ele><time>2026-04-18T09:23:38.999Z</time></trkpt><trkpt lat="43.43371282506269" lon="12.247179766752897"><ele>275.0</ele><time>2026-04-18T09:23:41.999Z</time></trkpt><trkpt lat="43.43364470466746" lon="12.247167147400907"><ele>275.14285714285717</ele><time>2026-04-18T09:23:43.999Z</time></trkpt><trkpt lat="43.433572473376486" lon="12.24718089768368"><ele>275.2857142857143</ele><time>2026-04-18T09:23:46.999Z</time></trkpt><trkpt lat="43.43348889978928" lon="12.24715340677916"><ele>275.42857142857144</ele><time>2026-04-18T09:23:49.999Z</time></trkpt><trkpt lat="43.43341257292557" lon="12.24714604825111"><ele>275.57142857142856</ele><time>2026-04-18T09:23:52.999Z</time></trkpt><trkpt lat="43.433349623400254" lon="12.247122047320937"><ele>275.7142857142857</ele><time>2026-04-18T09:23:54.999Z</time></trkpt><trkpt lat="43.43328171078996" lon="12.24709499557894"><ele>275.8571428571429</ele><time>2026-04-18T09:23:57.999Z</time></trkpt><trkpt lat="43.433218952528854" lon="12.247080735768655"><ele>276.0</ele><time>2026-04-18T09:23:59.999Z</time></trkpt><trkpt lat="43.43313579025576" lon="12.247061525754098"><ele>276.0</ele><time>2026-04-18T09:24:02.999Z</time></trkpt><trkpt lat="43.43305132817426" lon="12.247034956925107"><ele>276.0</ele><time>2026-04-18T09:24:05.999Z</time></trkpt><trkpt lat="43.43297379190079" lon="12.24700538150625"><ele>276.0</ele><time>2026-04-18T09:24:08.999Z</time></trkpt><trkpt lat="43.432909552951614" lon="12.246958983064241"><ele>276.0</ele><time>2026-04-18T09:24:11.999Z</time></trkpt><trkpt lat="43.43283858030812" lon="12.246931496918071"><ele>276.0</ele><time>2026-04-18T09:24:14.999Z</time></trkpt><trkpt lat="43.432757166800165" lon="12.246896840804869"><ele>276.0</ele><time>2026-04-18T09:24:17.999Z</time></trkpt><trkpt lat="43.43268042636633" lon="12.246863693241927"><ele>275.6666666666667</ele><time>2026-04-18T09:24:20.999Z</time></trkpt><trkpt lat="43.43259849145445" lon="12.246848865614039"><ele>275.3333333333333</ele><time>2026-04-18T09:24:23.999Z</time></trkpt><trkpt lat="43.43252072840533" lon="12.246826775325102"><ele>275.0</ele><time>2026-04-18T09:24:26.999Z</time></trkpt><trkpt lat="43.43245134649471" lon="12.246793305481114"><ele>274.66666666666663</ele><time>2026-04-18T09:24:29.999Z</time></trkpt><trkpt lat="43.43237236923936" lon="12.246761756349839"><ele>274.3333333333333</ele><time>2026-04-18T09:24:32.999Z</time></trkpt><trkpt lat="43.43229135042651" lon="12.2467504623421"><ele>274.0</ele><time>2026-04-18T09:24:35.999Z</time></trkpt><trkpt lat="43.43221862199456" lon="12.246699507882493"><ele>273.5</ele><time>2026-04-18T09:24:38.998Z</time></trkpt><trkpt lat="43.43213964705799" lon="12.246661437677224"><ele>273.0</ele><time>2026-04-18T09:24:42.998Z</time></trkpt><trkpt lat="43.4320642315891" lon="12.246653776149953"><ele>272.5</ele><time>2026-04-18T09:24:46Z</time></trkpt><trkpt lat="43.43199496572442" lon="12.246721814549893"><ele>272.0</ele><time>2026-04-18T09:24:49Z</time></trkpt><trkpt lat="43.43201743523054" lon="12.24684178028239"><ele>271.5</ele><time>2026-04-18T09:24:52Z</time></trkpt><trkpt lat="43.43205259360352" lon="12.24695560150723"><ele>271.0</ele><time>2026-04-18T09:24:55Z</time></trkpt><trkpt lat="43.432058217561426" lon="12.247060279622097"><ele>271.0</ele><time>2026-04-18T09:24:58Z</time></trkpt><trkpt lat="43.43204452709928" lon="12.247161513063276"><ele>271.0</ele><time>2026-04-18T09:25:01Z</time></trkpt><trkpt lat="43.43207530306706" lon="12.24705645771499"><ele>271.0</ele><time>2026-04-18T09:25:11Z</time></trkpt><trkpt lat="43.4320403160848" lon="12.24697818682366"><ele>271.0</ele><time>2026-04-18T09:25:18Z</time></trkpt><trkpt lat="43.432045549379964" lon="12.246888161983476"><ele>271.0</ele><time>2026-04-18T09:25:25Z</time></trkpt><trkpt lat="43.43201593533079" lon="12.246799727185731"><ele>271.0</ele><time>2026-04-18T09:25:32Z</time></trkpt><trkpt lat="43.432056079945696" lon="12.24692529308104"><ele>271.0</ele><time>2026-04-18T09:26:00.999Z</time></trkpt><trkpt lat="43.43205629236218" lon="12.247023796930172"><ele>271.0</ele><time>2026-04-18T09:26:04.999Z</time></trkpt><trkpt lat="43.43206145318233" lon="12.247110642927485"><ele>271.0</ele><time>2026-04-18T09:26:44.999Z</time></trkpt><trkpt lat="43.43205918602491" lon="12.247203241696848"><ele>271.0</ele><time>2026-04-18T09:27:02Z</time></trkpt><trkpt lat="43.43200670020397" lon="12.247251217399914"><ele>271.0</ele><time>2026-04-18T09:28:33.999Z</time></trkpt><trkpt lat="43.43193567625874" lon="12.24730301964469"><ele>271.0</ele><time>2026-04-18T09:28:39.999Z</time></trkpt><trkpt lat="43.43185360602117" lon="12.247296336645464"><ele>271.0</ele><time>2026-04-18T09:28:43.999Z</time></trkpt><trkpt lat="43.43182305630145" lon="12.24720458706702"><ele>271.0</ele><time>2026-04-18T09:28:46.999Z</time></trkpt><trkpt lat="43.431771191394084" lon="12.247107210860461"><ele>271.0</ele><time>2026-04-18T09:28:49.999Z</time></trkpt><trkpt lat="43.43173663840895" lon="12.246964944320315"><ele>271.0</ele><time>2026-04-18T09:28:51.999Z</time></trkpt><trkpt lat="43.43171107416899" lon="12.246827645886553"><ele>271.0</ele><time>2026-04-18T09:28:54.999Z</time></trkpt><trkpt lat="43.43168631734008" lon="12.24672963880214"><ele>271.0</ele><time>2026-04-18T09:28:57Z</time></trkpt><trkpt lat="43.431644942976824" lon="12.246602745193353"><ele>271.0</ele><time>2026-04-18T09:29:00Z</time></trkpt><trkpt lat="43.43160747329091" lon="12.246523258841664"><ele>271.0</ele><time>2026-04-18T09:29:02Z</time></trkpt><trkpt lat="43.4315753759735" lon="12.246438836984499"><ele>271.0</ele><time>2026-04-18T09:29:04Z</time></trkpt><trkpt lat="43.43153071230502" lon="12.246291870435579"><ele>271.0</ele><time>2026-04-18T09:29:06Z</time></trkpt><trkpt lat="43.43148178916239" lon="12.246211046971604"><ele>271.0</ele><time>2026-04-18T09:29:08Z</time></trkpt><trkpt lat="43.431414404541734" lon="12.24617549037149"><ele>271.0</ele><time>2026-04-18T09:29:10Z</time></trkpt><trkpt lat="43.43136189706917" lon="12.246121275758492"><ele>271.16666666666663</ele><time>2026-04-18T09:29:12Z</time></trkpt><trkpt lat="43.43129526097279" lon="12.246020293791926"><ele>271.3333333333333</ele><time>2026-04-18T09:29:14Z</time></trkpt><trkpt lat="43.43122469269366" lon="12.24600829249444"><ele>271.5</ele><time>2026-04-18T09:29:16Z</time></trkpt><trkpt lat="43.43115122568607" lon="12.245969296635959"><ele>271.6666666666667</ele><time>2026-04-18T09:29:19Z</time></trkpt><trkpt lat="43.43108814882576" lon="12.245953385698995"><ele>271.83333333333337</ele><time>2026-04-18T09:29:21Z</time></trkpt><trkpt lat="43.431017301031005" lon="12.245896417736004"><ele>272.0</ele><time>2026-04-18T09:29:23Z</time></trkpt><trkpt lat="43.43094449503297" lon="12.24587098610983"><ele>272.0</ele><time>2026-04-18T09:29:25Z</time></trkpt><trkpt lat="43.43088280198537" lon="12.245818618757466"><ele>272.0</ele><time>2026-04-18T09:29:27Z</time></trkpt><trkpt lat="43.43080161887646" lon="12.245762915412856"><ele>272.0</ele><time>2026-04-18T09:29:30Z</time></trkpt><trkpt lat="43.43074534221204" lon="12.245714914597583"><ele>272.0</ele><time>2026-04-18T09:29:32Z</time></trkpt><trkpt lat="43.43067851172643" lon="12.245691060905015"><ele>272.0</ele><time>2026-04-18T09:29:34Z</time></trkpt><trkpt lat="43.430614562305195" lon="12.245655735410688"><ele>272.0</ele><time>2026-04-18T09:29:36Z</time></trkpt><trkpt lat="43.43054959742954" lon="12.245584059597345"><ele>272.1428571428571</ele><time>2026-04-18T09:29:39Z</time></trkpt><trkpt lat="43.430485107670414" lon="12.245555717567932"><ele>272.2857142857143</ele><time>2026-04-18T09:29:41Z</time></trkpt><trkpt lat="43.43043523617986" lon="12.245486214707672"><ele>272.42857142857144</ele><time>2026-04-18T09:29:43Z</time></trkpt><trkpt lat="43.43034761809563" lon="12.245439861724257"><ele>272.57142857142856</ele><time>2026-04-18T09:29:46Z</time></trkpt><trkpt lat="43.43028804267295" lon="12.245399621212366"><ele>272.7142857142857</ele><time>2026-04-18T09:29:48Z</time></trkpt><trkpt lat="43.430259055000946" lon="12.245300792748658"><ele>272.85714285714283</ele><time>2026-04-18T09:29:49.999Z</time></trkpt><trkpt lat="43.430229766367674" lon="12.245210832798413"><ele>273.0</ele><time>2026-04-18T09:29:51.999Z</time></trkpt><trkpt lat="43.430208937224194" lon="12.245121566893898"><ele>273.0</ele><time>2026-04-18T09:29:53.999Z</time></trkpt><trkpt lat="43.43016476685192" lon="12.245028698577887"><ele>273.0</ele><time>2026-04-18T09:29:57.999Z</time></trkpt><trkpt lat="43.43008927806021" lon="12.245015034349299"><ele>273.0</ele><time>2026-04-18T09:29:59.999Z</time></trkpt><trkpt lat="43.42999863068467" lon="12.245006485256576"><ele>273.0</ele><time>2026-04-18T09:30:01.999Z</time></trkpt><trkpt lat="43.42993695171374" lon="12.244966999903374"><ele>273.0</ele><time>2026-04-18T09:30:03.999Z</time></trkpt><trkpt lat="43.42987123171964" lon="12.244935594580758"><ele>273.0</ele><time>2026-04-18T09:30:05.999Z</time></trkpt><trkpt lat="43.429781473819595" lon="12.244983663091519"><ele>273.0</ele><time>2026-04-18T09:30:08.999Z</time></trkpt><trkpt lat="43.42970938647416" lon="12.245017881425772"><ele>273.0</ele><time>2026-04-18T09:30:11.999Z</time></trkpt><trkpt lat="43.42962737253762" lon="12.245046485024028"><ele>273.0</ele><time>2026-04-18T09:30:14.999Z</time></trkpt><trkpt lat="43.42953952803881" lon="12.245028262428544"><ele>273.0</ele><time>2026-04-18T09:30:17.999Z</time></trkpt><trkpt lat="43.429485884386445" lon="12.245116158487198"><ele>273.0</ele><time>2026-04-18T09:30:20.999Z</time></trkpt><trkpt lat="43.42942510487508" lon="12.245142332385957"><ele>273.0</ele><time>2026-04-18T09:30:23.999Z</time></trkpt><trkpt lat="43.429404749023874" lon="12.245046935485965"><ele>273.1666666666667</ele><time>2026-04-18T09:30:27.999Z</time></trkpt><trkpt lat="43.429446440219515" lon="12.244943971371958"><ele>273.3333333333333</ele><time>2026-04-18T09:30:30.999Z</time></trkpt><trkpt lat="43.42935993471223" lon="12.24490382448667"><ele>273.5</ele><time>2026-04-18T09:30:32.999Z</time></trkpt><trkpt lat="43.42931077933259" lon="12.244816345338323"><ele>273.66666666666663</ele><time>2026-04-18T09:30:34.999Z</time></trkpt><trkpt lat="43.429286759355186" lon="12.244708597321043"><ele>273.8333333333333</ele><time>2026-04-18T09:30:36.999Z</time></trkpt><trkpt lat="43.429253481072344" lon="12.2445985865869"><ele>274.0</ele><time>2026-04-18T09:30:39.999Z</time></trkpt><trkpt lat="43.429202213322675" lon="12.244532346327318"><ele>274.0</ele><time>2026-04-18T09:30:41.999Z</time></trkpt><trkpt lat="43.42913074977536" lon="12.244491494154369"><ele>274.0</ele><time>2026-04-18T09:30:44.999Z</time></trkpt><trkpt lat="43.42909385409302" lon="12.244373731585176"><ele>274.0</ele><time>2026-04-18T09:30:47.999Z</time></trkpt><trkpt lat="43.42907589943459" lon="12.244279522464058"><ele>274.0</ele><time>2026-04-18T09:30:49.999Z</time></trkpt><trkpt lat="43.42905451257016" lon="12.244179568610305"><ele>274.0</ele><time>2026-04-18T09:30:52.999Z</time></trkpt><trkpt lat="43.42903205727608" lon="12.244067920635276"><ele>274.0</ele><time>2026-04-18T09:30:55.999Z</time></trkpt><trkpt lat="43.42900892416524" lon="12.24394377594057"><ele>273.8571428571429</ele><time>2026-04-18T09:30:58.999Z</time></trkpt><trkpt lat="43.42898980793185" lon="12.24385877889518"><ele>273.7142857142857</ele><time>2026-04-18T09:31:00.999Z</time></trkpt><trkpt lat="43.42897927265694" lon="12.243742973851248"><ele>273.57142857142856</ele><time>2026-04-18T09:31:04Z</time></trkpt><trkpt lat="43.42896952712454" lon="12.243654592575"><ele>273.42857142857144</ele><time>2026-04-18T09:31:06Z</time></trkpt><trkpt lat="43.42898654718001" lon="12.243561698182921"><ele>273.2857142857143</ele><time>2026-04-18T09:31:08Z</time></trkpt><trkpt lat="43.42901313490253" lon="12.243438502368148"><ele>273.14285714285717</ele><time>2026-04-18T09:31:11Z</time></trkpt><trkpt lat="43.42903617709834" lon="12.243349224769961"><ele>273.0</ele><time>2026-04-18T09:31:13Z</time></trkpt><trkpt lat="43.42908123039715" lon="12.24323765665086"><ele>273.3333333333333</ele><time>2026-04-18T09:31:16Z</time></trkpt><trkpt lat="43.42911902029759" lon="12.243130348397552"><ele>273.6666666666667</ele><time>2026-04-18T09:31:19Z</time></trkpt><trkpt lat="43.42916349049411" lon="12.243027805873048"><ele>274.0</ele><time>2026-04-18T09:31:22Z</time></trkpt><trkpt lat="43.429218138730974" lon="12.242922899825459"><ele>274.33333333333337</ele><time>2026-04-18T09:31:25Z</time></trkpt><trkpt lat="43.42921141788336" lon="12.242835192990318"><ele>274.6666666666667</ele><time>2026-04-18T09:31:27Z</time></trkpt><trkpt lat="43.429253620095785" lon="12.242731224811555"><ele>275.0</ele><time>2026-04-18T09:31:30Z</time></trkpt><trkpt lat="43.4292674690168" lon="12.242645280778797"><ele>275.0</ele><time>2026-04-18T09:31:32Z</time></trkpt><trkpt lat="43.42926905105464" lon="12.242557333341876"><ele>275.0</ele><time>2026-04-18T09:31:34Z</time></trkpt><trkpt lat="43.42926230565125" lon="12.242426546083907"><ele>275.0</ele><time>2026-04-18T09:31:37Z</time></trkpt><trkpt lat="43.42925777410734" lon="12.242337953331795"><ele>275.0</ele><time>2026-04-18T09:31:39Z</time></trkpt><trkpt lat="43.42924492127292" lon="12.242204957100205"><ele>275.0</ele><time>2026-04-18T09:31:42Z</time></trkpt><trkpt lat="43.429235734078496" lon="12.242079583779296"><ele>275.0</ele><time>2026-04-18T09:31:45Z</time></trkpt><trkpt lat="43.429223804373066" lon="12.241988921904495"><ele>274.6666666666667</ele><time>2026-04-18T09:31:47Z</time></trkpt><trkpt lat="43.42921690047688" lon="12.241867267656724"><ele>274.33333333333337</ele><time>2026-04-18T09:31:50Z</time></trkpt><trkpt lat="43.42920908461294" lon="12.241754064749768"><ele>274.0</ele><time>2026-04-18T09:31:53Z</time></trkpt><trkpt lat="43.42920478415829" lon="12.241642817116984"><ele>273.6666666666667</ele><time>2026-04-18T09:31:55.999Z</time></trkpt><trkpt lat="43.4291986247278" lon="12.24155410008225"><ele>273.3333333333333</ele><time>2026-04-18T09:31:57.999Z</time></trkpt><trkpt lat="43.429198935280645" lon="12.241423613296611"><ele>273.0</ele><time>2026-04-18T09:32:00.999Z</time></trkpt><trkpt lat="43.42922315592891" lon="12.241341379513473"><ele>273.0</ele><time>2026-04-18T09:32:02.999Z</time></trkpt><trkpt lat="43.42926643086138" lon="12.241269617934503"><ele>273.0</ele><time>2026-04-18T09:32:04.999Z</time></trkpt><trkpt lat="43.429349458579054" lon="12.24121961743928"><ele>273.0</ele><time>2026-04-18T09:32:07.999Z</time></trkpt><trkpt lat="43.429437527417996" lon="12.241208048820203"><ele>273.0</ele><time>2026-04-18T09:32:10.999Z</time></trkpt><trkpt lat="43.429498081300466" lon="12.241176183093799"><ele>273.0</ele><time>2026-04-18T09:32:12.999Z</time></trkpt><trkpt lat="43.42958611031534" lon="12.241167325582339"><ele>273.0</ele><time>2026-04-18T09:32:15.999Z</time></trkpt><trkpt lat="43.429675669991674" lon="12.24113580416881"><ele>273.0</ele><time>2026-04-18T09:32:18.999Z</time></trkpt><trkpt lat="43.429770475478406" lon="12.241112310958552"><ele>273.0</ele><time>2026-04-18T09:32:21.999Z</time></trkpt><trkpt lat="43.42985414302237" lon="12.241098914171285"><ele>273.0</ele><time>2026-04-18T09:32:24.999Z</time></trkpt><trkpt lat="43.42992267764207" lon="12.24108871922479"><ele>273.0</ele><time>2026-04-18T09:32:26.999Z</time></trkpt><trkpt lat="43.430014234218945" lon="12.241066064150198"><ele>273.0</ele><time>2026-04-18T09:32:29.999Z</time></trkpt><trkpt lat="43.43008245250924" lon="12.24103900967821"><ele>273.0</ele><time>2026-04-18T09:32:31.999Z</time></trkpt><trkpt lat="43.43015494922692" lon="12.240976618482563"><ele>273.0</ele><time>2026-04-18T09:32:34.999Z</time></trkpt><trkpt lat="43.43020522734299" lon="12.24092308732847"><ele>273.0</ele><time>2026-04-18T09:32:36.999Z</time></trkpt><trkpt lat="43.43023634444846" lon="12.240842303279452"><ele>273.0</ele><time>2026-04-18T09:32:38.999Z</time></trkpt><trkpt lat="43.430249842029774" lon="12.240720765761115"><ele>273.0</ele><time>2026-04-18T09:32:41.999Z</time></trkpt><trkpt lat="43.43027183775137" lon="12.2405981604266"><ele>273.0</ele><time>2026-04-18T09:32:44.999Z</time></trkpt><trkpt lat="43.4303174483352" lon="12.240490071216021"><ele>273.0</ele><time>2026-04-18T09:32:47.999Z</time></trkpt><trkpt lat="43.4303852840928" lon="12.240442761382125"><ele>273.0</ele><time>2026-04-18T09:32:50.999Z</time></trkpt><trkpt lat="43.43046636829436" lon="12.240406375899587"><ele>273.0</ele><time>2026-04-18T09:32:53.999Z</time></trkpt><trkpt lat="43.430552223427114" lon="12.240400609346452"><ele>273.0</ele><time>2026-04-18T09:32:56.999Z</time></trkpt><trkpt lat="43.43063874727297" lon="12.24040750801158"><ele>273.0</ele><time>2026-04-18T09:32:59.999Z</time></trkpt><trkpt lat="43.43072472109356" lon="12.24040927247294"><ele>273.0</ele><time>2026-04-18T09:33:02.999Z</time></trkpt><trkpt lat="43.43078742909548" lon="12.240434705292422"><ele>273.0</ele><time>2026-04-18T09:33:04.999Z</time></trkpt><trkpt lat="43.43087385530953" lon="12.240428450112079"><ele>273.3333333333333</ele><time>2026-04-18T09:33:07.999Z</time></trkpt><trkpt lat="43.4309385801551" lon="12.240425836317613"><ele>273.6666666666667</ele><time>2026-04-18T09:33:10Z</time></trkpt><trkpt lat="43.43100360999562" lon="12.240416236998197"><ele>274.0</ele><time>2026-04-18T09:33:12Z</time></trkpt><trkpt lat="43.43109700734718" lon="12.240393282650434"><ele>274.33333333333337</ele><time>2026-04-18T09:33:15Z</time></trkpt><trkpt lat="43.43117166106706" lon="12.240384454264568"><ele>274.6666666666667</ele><time>2026-04-18T09:33:17Z</time></trkpt><trkpt lat="43.43126602460937" lon="12.24038246784124"><ele>275.0</ele><time>2026-04-18T09:33:20Z</time></trkpt><trkpt lat="43.431348418622896" lon="12.240393714708322"><ele>275.0</ele><time>2026-04-18T09:33:23Z</time></trkpt><trkpt lat="43.43143179532804" lon="12.24041418481899"><ele>275.0</ele><time>2026-04-18T09:33:26Z</time></trkpt><trkpt lat="43.43152569390389" lon="12.240420138569352"><ele>275.0</ele><time>2026-04-18T09:33:29Z</time></trkpt><trkpt lat="43.43158848723355" lon="12.240429470182074"><ele>275.0</ele><time>2026-04-18T09:33:31Z</time></trkpt><trkpt lat="43.43165003855095" lon="12.240457620186698"><ele>275.0</ele><time>2026-04-18T09:33:33Z</time></trkpt><trkpt lat="43.43171458703001" lon="12.240450388524717"><ele>275.0</ele><time>2026-04-18T09:33:35Z</time></trkpt><trkpt lat="43.43179870694653" lon="12.240409401042164"><ele>275.0</ele><time>2026-04-18T09:33:38Z</time></trkpt><trkpt lat="43.43186375548395" lon="12.240384216842124"><ele>275.0</ele><time>2026-04-18T09:33:40Z</time></trkpt><trkpt lat="43.43193551512965" lon="12.240282594057595"><ele>275.0</ele><time>2026-04-18T09:33:43Z</time></trkpt><trkpt lat="43.43198366473428" lon="12.2402186356153"><ele>275.0</ele><time>2026-04-18T09:33:45Z</time></trkpt><trkpt lat="43.432038268848046" lon="12.240093522126372"><ele>275.0</ele><time>2026-04-18T09:33:48Z</time></trkpt><trkpt lat="43.43208393011" lon="12.24000047510302"><ele>275.0</ele><time>2026-04-18T09:33:51Z</time></trkpt><trkpt lat="43.432126789955674" lon="12.239913431037653"><ele>273.83333333333337</ele><time>2026-04-18T09:33:54Z</time></trkpt><trkpt lat="43.43215809881412" lon="12.239806021968151"><ele>272.6666666666667</ele><time>2026-04-18T09:33:57Z</time></trkpt><trkpt lat="43.432184648220876" lon="12.23972208428316"><ele>271.5</ele><time>2026-04-18T09:33:59Z</time></trkpt><trkpt lat="43.43219942375073" lon="12.239615799397292"><ele>270.3333333333333</ele><time>2026-04-18T09:34:01.999Z</time></trkpt><trkpt lat="43.432209763668595" lon="12.239512895436082"><ele>269.16666666666663</ele><time>2026-04-18T09:34:04.999Z</time></trkpt><trkpt lat="43.43219005643077" lon="12.23940166878599"><ele>268.0</ele><time>2026-04-18T09:34:06.999Z</time></trkpt><trkpt lat="43.43220420472006" lon="12.239282540571134"><ele>267.8333333333333</ele><time>2026-04-18T09:34:09.999Z</time></trkpt><trkpt lat="43.43219713786373" lon="12.239181933963746"><ele>267.66666666666663</ele><time>2026-04-18T09:34:11.999Z</time></trkpt><trkpt lat="43.4321947545405" lon="12.239068911439867"><ele>267.5</ele><time>2026-04-18T09:34:14.999Z</time></trkpt><trkpt lat="43.43218230337703" lon="12.238963343238941"><ele>267.3333333333333</ele><time>2026-04-18T09:34:17.999Z</time></trkpt><trkpt lat="43.43216066985916" lon="12.238880207965472"><ele>267.1666666666667</ele><time>2026-04-18T09:34:19.999Z</time></trkpt><trkpt lat="43.43215131210331" lon="12.238754944057517"><ele>267.0</ele><time>2026-04-18T09:34:22.999Z</time></trkpt><trkpt lat="43.43216378670452" lon="12.238657886484386"><ele>266.8571428571429</ele><time>2026-04-18T09:34:24.999Z</time></trkpt><trkpt lat="43.432156646386815" lon="12.238568555448515"><ele>266.7142857142857</ele><time>2026-04-18T09:34:26.999Z</time></trkpt><trkpt lat="43.43212757740216" lon="12.238486015699074"><ele>266.57142857142856</ele><time>2026-04-18T09:34:28.999Z</time></trkpt><trkpt lat="43.43211994817873" lon="12.238366050180268"><ele>266.42857142857144</ele><time>2026-04-18T09:34:31.999Z</time></trkpt><trkpt lat="43.432109966056025" lon="12.238270916366735"><ele>266.2857142857143</ele><time>2026-04-18T09:34:33.999Z</time></trkpt><trkpt lat="43.432110011386676" lon="12.238174026238317"><ele>266.14285714285717</ele><time>2026-04-18T09:34:35.999Z</time></trkpt><trkpt lat="43.43208714413214" lon="12.238089945613886"><ele>266.0</ele><time>2026-04-18T09:34:37.999Z</time></trkpt><trkpt lat="43.43208413020993" lon="12.237981112190303"><ele>266.5</ele><time>2026-04-18T09:34:40.999Z</time></trkpt><trkpt lat="43.432061421865214" lon="12.237872295776267"><ele>267.0</ele><time>2026-04-18T09:34:43.999Z</time></trkpt><trkpt lat="43.43206576827427" lon="12.237742969428282"><ele>267.5</ele><time>2026-04-18T09:34:46.999Z</time></trkpt><trkpt lat="43.43207415886835" lon="12.23765192015148"><ele>268.0</ele><time>2026-04-18T09:34:48.999Z</time></trkpt><trkpt lat="43.43205147074884" lon="12.23757023584633"><ele>268.5</ele><time>2026-04-18T09:34:50.999Z</time></trkpt><trkpt lat="43.4320203073384" lon="12.237444066498151"><ele>269.0</ele><time>2026-04-18T09:34:53.999Z</time></trkpt><trkpt lat="43.43201213395664" lon="12.237329051450237"><ele>269.33333333333337</ele><time>2026-04-18T09:34:56.999Z</time></trkpt><trkpt lat="43.43197704786343" lon="12.237218386120492"><ele>269.6666666666667</ele><time>2026-04-18T09:34:59.999Z</time></trkpt><trkpt lat="43.431906053603534" lon="12.2371372514216"><ele>270.0</ele><time>2026-04-18T09:35:02.999Z</time></trkpt><trkpt lat="43.43186419895061" lon="12.237063601243083"><ele>270.3333333333333</ele><time>2026-04-18T09:35:05.999Z</time></trkpt><trkpt lat="43.431812905763834" lon="12.237006712813368"><ele>270.66666666666663</ele><time>2026-04-18T09:35:07.999Z</time></trkpt><trkpt lat="43.43177737659163" lon="12.23691776953151"><ele>271.0</ele><time>2026-04-18T09:35:10.999Z</time></trkpt><trkpt lat="43.431746976336385" lon="12.236820984793225"><ele>271.0</ele><time>2026-04-18T09:35:13.999Z</time></trkpt><trkpt lat="43.431702380108845" lon="12.236752018265243"><ele>271.0</ele><time>2026-04-18T09:35:17Z</time></trkpt><trkpt lat="43.43162306684479" lon="12.236713416156645"><ele>271.0</ele><time>2026-04-18T09:35:20Z</time></trkpt><trkpt lat="43.431568950318145" lon="12.236645789196887"><ele>271.0</ele><time>2026-04-18T09:35:22Z</time></trkpt><trkpt lat="43.43148555990632" lon="12.236646575538927"><ele>271.0</ele><time>2026-04-18T09:35:25Z</time></trkpt><trkpt lat="43.431398105449745" lon="12.236635430465382"><ele>271.0</ele><time>2026-04-18T09:35:28Z</time></trkpt><trkpt lat="43.4313257913667" lon="12.236603229649077"><ele>271.16666666666663</ele><time>2026-04-18T09:35:31Z</time></trkpt><trkpt lat="43.43124939204695" lon="12.236597360966025"><ele>271.3333333333333</ele><time>2026-04-18T09:35:34Z</time></trkpt><trkpt lat="43.43118001257155" lon="12.236584506048473"><ele>271.5</ele><time>2026-04-18T09:35:37Z</time></trkpt><trkpt lat="43.43109562747816" lon="12.236590744721884"><ele>271.6666666666667</ele><time>2026-04-18T09:35:40Z</time></trkpt><trkpt lat="43.43100512238125" lon="12.236580401563888"><ele>271.83333333333337</ele><time>2026-04-18T09:35:43Z</time></trkpt><trkpt lat="43.430920356329125" lon="12.236571987127228"><ele>272.0</ele><time>2026-04-18T09:35:46Z</time></trkpt><trkpt lat="43.43082756053205" lon="12.23657626588516"><ele>272.0</ele><time>2026-04-18T09:35:49Z</time></trkpt><trkpt lat="43.43074285424393" lon="12.236558105055298"><ele>272.0</ele><time>2026-04-18T09:35:52Z</time></trkpt><trkpt lat="43.43066926124016" lon="12.2365497220743"><ele>272.0</ele><time>2026-04-18T09:35:55Z</time></trkpt><trkpt lat="43.43060398604618" lon="12.236535987773285"><ele>272.0</ele><time>2026-04-18T09:35:57Z</time></trkpt><trkpt lat="43.43052572186973" lon="12.236535852185298"><ele>272.0</ele><time>2026-04-18T09:36:00Z</time></trkpt><trkpt lat="43.43045629100569" lon="12.236523935066288"><ele>272.0</ele><time>2026-04-18T09:36:02Z</time></trkpt><trkpt lat="43.43035867088036" lon="12.236509035890329"><ele>272.0</ele><time>2026-04-18T09:36:05Z</time></trkpt><trkpt lat="43.43026621629112" lon="12.236499499057839"><ele>272.0</ele><time>2026-04-18T09:36:07.999Z</time></trkpt><trkpt lat="43.43017776272331" lon="12.236481794142623"><ele>272.0</ele><time>2026-04-18T09:36:10.999Z</time></trkpt><trkpt lat="43.430091454378754" lon="12.23646332793155"><ele>272.0</ele><time>2026-04-18T09:36:13.999Z</time></trkpt><trkpt lat="43.429993973883946" lon="12.236462007463908"><ele>272.0</ele><time>2026-04-18T09:36:17.999Z</time></trkpt><trkpt lat="43.4299009307723" lon="12.236466927864845"><ele>271.99999999999994</ele><time>2026-04-18T09:36:20.999Z</time></trkpt><trkpt lat="43.4298310468241" lon="12.236483505982479"><ele>272.0</ele><time>2026-04-18T09:36:22.999Z</time></trkpt><trkpt lat="43.42974569994487" lon="12.236473827698626"><ele>272.0</ele><time>2026-04-18T09:36:25.999Z</time></trkpt><trkpt lat="43.42966181069018" lon="12.236488529227817"><ele>272.0</ele><time>2026-04-18T09:36:28.999Z</time></trkpt><trkpt lat="43.4295962469743" lon="12.236491931748493"><ele>272.0</ele><time>2026-04-18T09:36:30.999Z</time></trkpt><trkpt lat="43.42951972818419" lon="12.236503080145976"><ele>271.99999999999994</ele><time>2026-04-18T09:36:32.999Z</time></trkpt><trkpt lat="43.429457334704324" lon="12.236527171098581"><ele>272.0</ele><time>2026-04-18T09:36:34.999Z</time></trkpt><trkpt lat="43.429383596420074" lon="12.236530017853882"><ele>271.83333333333337</ele><time>2026-04-18T09:36:37.999Z</time></trkpt><trkpt lat="43.429309335562095" lon="12.236523568111878"><ele>271.6666666666667</ele><time>2026-04-18T09:36:39.999Z</time></trkpt><trkpt lat="43.429242368559805" lon="12.236546477067705"><ele>271.5</ele><time>2026-04-18T09:36:41.999Z</time></trkpt><trkpt lat="43.429156456081905" lon="12.236545569461526"><ele>271.3333333333333</ele><time>2026-04-18T09:36:44.999Z</time></trkpt><trkpt lat="43.429092366073256" lon="12.236564662146327"><ele>271.16666666666663</ele><time>2026-04-18T09:36:46.999Z</time></trkpt><trkpt lat="43.42902287477241" lon="12.236571679541276"><ele>271.0</ele><time>2026-04-18T09:36:49.999Z</time></trkpt><trkpt lat="43.428922804566525" lon="12.236570559750646"><ele>271.0</ele><time>2026-04-18T09:36:53.999Z</time></trkpt><trkpt lat="43.42884210449256" lon="12.23657864283727"><ele>271.0</ele><time>2026-04-18T09:36:56.999Z</time></trkpt><trkpt lat="43.42875751853229" lon="12.236563720595958"><ele>271.0</ele><time>2026-04-18T09:36:59.999Z</time></trkpt><trkpt lat="43.42867182888642" lon="12.236570982694397"><ele>271.0</ele><time>2026-04-18T09:37:02.999Z</time></trkpt><trkpt lat="43.428587134130595" lon="12.236552439793407"><ele>271.0</ele><time>2026-04-18T09:37:05.999Z</time></trkpt><trkpt lat="43.42849717582837" lon="12.236536708939346"><ele>271.0</ele><time>2026-04-18T09:37:08.999Z</time></trkpt><trkpt lat="43.428421942744265" lon="12.236516706849168"><ele>271.16666666666663</ele><time>2026-04-18T09:37:11.999Z</time></trkpt><trkpt lat="43.42834292259117" lon="12.236506813950243"><ele>271.3333333333333</ele><time>2026-04-18T09:37:14.999Z</time></trkpt><trkpt lat="43.42824606568745" lon="12.236519188625245"><ele>271.5</ele><time>2026-04-18T09:37:17.999Z</time></trkpt><trkpt lat="43.42816004660918" lon="12.236520161251713"><ele>271.6666666666667</ele><time>2026-04-18T09:37:21Z</time></trkpt><trkpt lat="43.42808032086995" lon="12.23654427883912"><ele>271.83333333333337</ele><time>2026-04-18T09:37:24Z</time></trkpt><trkpt lat="43.427995582726105" lon="12.236518502199337"><ele>272.0</ele><time>2026-04-18T09:37:27Z</time></trkpt><trkpt lat="43.42790950157779" lon="12.236552120554462"><ele>272.1666666666667</ele><time>2026-04-18T09:37:30Z</time></trkpt><trkpt lat="43.42783275818488" lon="12.236578077703832"><ele>272.33333333333337</ele><time>2026-04-18T09:37:33Z</time></trkpt><trkpt lat="43.42776673238201" lon="12.2366263245845"><ele>272.5</ele><time>2026-04-18T09:37:36Z</time></trkpt><trkpt lat="43.42767747345459" lon="12.23665711327126"><ele>272.6666666666667</ele><time>2026-04-18T09:37:39Z</time></trkpt><trkpt lat="43.42760651895369" lon="12.236636930420778"><ele>272.8333333333333</ele><time>2026-04-18T09:37:41Z</time></trkpt><trkpt lat="43.42754311188138" lon="12.236640030207822"><ele>273.0</ele><time>2026-04-18T09:37:43Z</time></trkpt><trkpt lat="43.427460016758495" lon="12.236667765398483"><ele>273.0</ele><time>2026-04-18T09:37:46Z</time></trkpt><trkpt lat="43.42738161270534" lon="12.236674947020148"><ele>273.0</ele><time>2026-04-18T09:37:49Z</time></trkpt><trkpt lat="43.42729950777893" lon="12.236716404944158"><ele>273.0</ele><time>2026-04-18T09:37:52Z</time></trkpt><trkpt lat="43.42720533191215" lon="12.236730320031878"><ele>273.0</ele><time>2026-04-18T09:37:55Z</time></trkpt><trkpt lat="43.42714034714251" lon="12.236746965470003"><ele>273.0</ele><time>2026-04-18T09:37:57Z</time></trkpt><trkpt lat="43.42707116511462" lon="12.236773333793842"><ele>273.0</ele><time>2026-04-18T09:37:59Z</time></trkpt><trkpt lat="43.42698464840733" lon="12.236768765084255"><ele>273.1666666666667</ele><time>2026-04-18T09:38:02Z</time></trkpt><trkpt lat="43.42691521819289" lon="12.236783036403214"><ele>273.3333333333333</ele><time>2026-04-18T09:38:05Z</time></trkpt><trkpt lat="43.42684238818041" lon="12.236806040736017"><ele>273.5</ele><time>2026-04-18T09:38:08Z</time></trkpt><trkpt lat="43.426754351900456" lon="12.236824910717624"><ele>273.66666666666663</ele><time>2026-04-18T09:38:11Z</time></trkpt><trkpt lat="43.42668904084454" lon="12.236858547554498"><ele>273.8333333333333</ele><time>2026-04-18T09:38:14Z</time></trkpt><trkpt lat="43.42660503223382" lon="12.236887287589113"><ele>274.0</ele><time>2026-04-18T09:38:16.999Z</time></trkpt><trkpt lat="43.42654007883603" lon="12.23691599100152"><ele>274.0</ele><time>2026-04-18T09:38:18.999Z</time></trkpt><trkpt lat="43.426477047390605" lon="12.236980981449399"><ele>274.0</ele><time>2026-04-18T09:38:21.999Z</time></trkpt><trkpt lat="43.426436686729794" lon="12.237055058581138"><ele>274.0</ele><time>2026-04-18T09:38:23.999Z</time></trkpt><trkpt lat="43.42636300490828" lon="12.237092220483984"><ele>274.0</ele><time>2026-04-18T09:38:26.999Z</time></trkpt><trkpt lat="43.42629873828136" lon="12.237122562491754"><ele>274.0</ele><time>2026-04-18T09:38:28.999Z</time></trkpt><trkpt lat="43.42621849374115" lon="12.237166403778772"><ele>274.0</ele><time>2026-04-18T09:38:31.999Z</time></trkpt><trkpt lat="43.42614389656704" lon="12.23717421958858"><ele>273.3333333333333</ele><time>2026-04-18T09:38:34.999Z</time></trkpt><trkpt lat="43.426054920488234" lon="12.237213288186313"><ele>272.66666666666663</ele><time>2026-04-18T09:38:37.999Z</time></trkpt><trkpt lat="43.425985325881825" lon="12.237278423379388"><ele>272.0</ele><time>2026-04-18T09:38:40.999Z</time></trkpt><trkpt lat="43.42590159055869" lon="12.237314059469313"><ele>271.3333333333333</ele><time>2026-04-18T09:38:43.999Z</time></trkpt><trkpt lat="43.42583226254462" lon="12.237345668787105"><ele>270.6666666666667</ele><time>2026-04-18T09:38:45.999Z</time></trkpt><trkpt lat="43.425771019987394" lon="12.237394281927767"><ele>270.0</ele><time>2026-04-18T09:38:47.999Z</time></trkpt><trkpt lat="43.425719665562205" lon="12.237457356345978"><ele>270.0</ele><time>2026-04-18T09:38:49.999Z</time></trkpt><trkpt lat="43.42566412229445" lon="12.237501330874553"><ele>270.0</ele><time>2026-04-18T09:38:51.999Z</time></trkpt><trkpt lat="43.42560599739169" lon="12.237577695133517"><ele>270.0</ele><time>2026-04-18T09:38:54.999Z</time></trkpt><trkpt lat="43.425557334464074" lon="12.237633259655833"><ele>270.0</ele><time>2026-04-18T09:38:56.999Z</time></trkpt><trkpt lat="43.4255039599428" lon="12.237684435279977"><ele>270.0</ele><time>2026-04-18T09:38:59.999Z</time></trkpt><trkpt lat="43.42544376197395" lon="12.23772576010745"><ele>270.0</ele><time>2026-04-18T09:39:01.999Z</time></trkpt><trkpt lat="43.42538063311913" lon="12.23774128047933"><ele>270.0</ele><time>2026-04-18T09:39:03.999Z</time></trkpt><trkpt lat="43.42532358866038" lon="12.237782026143638"><ele>270.1666666666667</ele><time>2026-04-18T09:39:05.999Z</time></trkpt><trkpt lat="43.425235178444545" lon="12.237833917766459"><ele>270.3333333333333</ele><time>2026-04-18T09:39:08.999Z</time></trkpt><trkpt lat="43.425167056002714" lon="12.237895339710638"><ele>270.5</ele><time>2026-04-18T09:39:11.999Z</time></trkpt><trkpt lat="43.425105982974735" lon="12.237982481057884"><ele>270.66666666666663</ele><time>2026-04-18T09:39:14.999Z</time></trkpt><trkpt lat="43.425053033134624" lon="12.238034416328336"><ele>270.8333333333333</ele><time>2026-04-18T09:39:16.999Z</time></trkpt><trkpt lat="43.425003752741766" lon="12.238104414680949"><ele>271.0</ele><time>2026-04-18T09:39:19.999Z</time></trkpt><trkpt lat="43.42493906276936" lon="12.238136886809695"><ele>271.1428571428571</ele><time>2026-04-18T09:39:22.999Z</time></trkpt><trkpt lat="43.42485452571825" lon="12.238189293194678"><ele>271.2857142857143</ele><time>2026-04-18T09:39:25.999Z</time></trkpt><trkpt lat="43.424789972326174" lon="12.238221152450695"><ele>271.42857142857144</ele><time>2026-04-18T09:39:29Z</time></trkpt><trkpt lat="43.424723761586606" lon="12.23825125136662"><ele>271.57142857142856</ele><time>2026-04-18T09:39:32Z</time></trkpt><trkpt lat="43.42466487723279" lon="12.238285687543229"><ele>271.7142857142857</ele><time>2026-04-18T09:39:34Z</time></trkpt><trkpt lat="43.424607652083175" lon="12.238334198587259"><ele>271.85714285714283</ele><time>2026-04-18T09:39:37Z</time></trkpt><trkpt lat="43.42454137391108" lon="12.238364822479046"><ele>272.0</ele><time>2026-04-18T09:39:39Z</time></trkpt><trkpt lat="43.424486356901404" lon="12.238415518733675"><ele>272.0</ele><time>2026-04-18T09:39:41Z</time></trkpt><trkpt lat="43.424416676599" lon="12.238462238572453"><ele>272.0</ele><time>2026-04-18T09:39:44Z</time></trkpt><trkpt lat="43.42435503238171" lon="12.238498079196615"><ele>272.0</ele><time>2026-04-18T09:39:47Z</time></trkpt><trkpt lat="43.424278675857934" lon="12.23849236598383"><ele>272.0</ele><time>2026-04-18T09:39:49Z</time></trkpt><trkpt lat="43.4242234640721" lon="12.238549470721987"><ele>272.0</ele><time>2026-04-18T09:39:51Z</time></trkpt><trkpt lat="43.42415598926207" lon="12.238569873231762"><ele>272.0</ele><time>2026-04-18T09:39:53Z</time></trkpt><trkpt lat="43.42407408586255" lon="12.238634677133332"><ele>272.0</ele><time>2026-04-18T09:39:56Z</time></trkpt><trkpt lat="43.42399880207189" lon="12.238699098819861"><ele>272.0</ele><time>2026-04-18T09:39:59Z</time></trkpt><trkpt lat="43.42391492215051" lon="12.238731875201958"><ele>272.0</ele><time>2026-04-18T09:40:02Z</time></trkpt><trkpt lat="43.42384852885052" lon="12.238781513018"><ele>272.0</ele><time>2026-04-18T09:40:05Z</time></trkpt><trkpt lat="43.42379154369165" lon="12.238820647733766"><ele>272.0</ele><time>2026-04-18T09:40:07Z</time></trkpt><trkpt lat="43.423712604699155" lon="12.238862051140554"><ele>272.0</ele><time>2026-04-18T09:40:10Z</time></trkpt><trkpt lat="43.42363385489884" lon="12.238902737863912"><ele>271.57142857142856</ele><time>2026-04-18T09:40:13Z</time></trkpt><trkpt lat="43.423568312574574" lon="12.238929374610274"><ele>271.1428571428571</ele><time>2026-04-18T09:40:16Z</time></trkpt><trkpt lat="43.42348498454799" lon="12.238972562295064"><ele>270.7142857142857</ele><time>2026-04-18T09:40:20Z</time></trkpt><trkpt lat="43.423418135566465" lon="12.239008733075135"><ele>270.2857142857143</ele><time>2026-04-18T09:40:22.999Z</time></trkpt><trkpt lat="43.42334951260742" lon="12.239038981006852"><ele>269.8571428571429</ele><time>2026-04-18T09:40:25.999Z</time></trkpt><trkpt lat="43.42328333211088" lon="12.239075262037721"><ele>269.42857142857144</ele><time>2026-04-18T09:40:28.999Z</time></trkpt><trkpt lat="43.423216487400744" lon="12.239094259035163"><ele>269.0</ele><time>2026-04-18T09:40:31.999Z</time></trkpt><trkpt lat="43.42314760755554" lon="12.239133938273469"><ele>268.83333333333337</ele><time>2026-04-18T09:40:33.999Z</time></trkpt><trkpt lat="43.42307114718629" lon="12.239167776449474"><ele>268.6666666666667</ele><time>2026-04-18T09:40:35.999Z</time></trkpt><trkpt lat="43.423004014421636" lon="12.239202562608751"><ele>268.5</ele><time>2026-04-18T09:40:37.999Z</time></trkpt><trkpt lat="43.422935434686735" lon="12.239227470577303"><ele>268.3333333333333</ele><time>2026-04-18T09:40:40.999Z</time></trkpt><trkpt lat="43.42285031293362" lon="12.239273443285878"><ele>268.16666666666663</ele><time>2026-04-18T09:40:44.999Z</time></trkpt><trkpt lat="43.42276692935619" lon="12.239309084944319"><ele>268.0</ele><time>2026-04-18T09:40:47.999Z</time></trkpt><trkpt lat="43.422691458525435" lon="12.23935268675098"><ele>268.0</ele><time>2026-04-18T09:40:49.999Z</time></trkpt><trkpt lat="43.42262222870789" lon="12.239362864274279"><ele>268.0</ele><time>2026-04-18T09:40:51.999Z</time></trkpt><trkpt lat="43.42253533263045" lon="12.239419042538056"><ele>268.0</ele><time>2026-04-18T09:40:54.999Z</time></trkpt><trkpt lat="43.42246843969462" lon="12.239443613761868"><ele>268.0</ele><time>2026-04-18T09:40:56.999Z</time></trkpt><trkpt lat="43.422406465309805" lon="12.239460776157609"><ele>268.0</ele><time>2026-04-18T09:40:58.999Z</time></trkpt><trkpt lat="43.42234732106281" lon="12.2394911944228"><ele>268.0</ele><time>2026-04-18T09:41:00.999Z</time></trkpt><trkpt lat="43.422285328500074" lon="12.239508227363974"><ele>268.0</ele><time>2026-04-18T09:41:02.999Z</time></trkpt><trkpt lat="43.42220001816912" lon="12.239534450675682"><ele>268.0</ele><time>2026-04-18T09:41:05.999Z</time></trkpt><trkpt lat="43.42213703839312" lon="12.239547785566046"><ele>268.0</ele><time>2026-04-18T09:41:07.999Z</time></trkpt><trkpt lat="43.42208197897018" lon="12.239599745352011"><ele>268.0</ele><time>2026-04-18T09:41:09.999Z</time></trkpt><trkpt lat="43.422006637386446" lon="12.23965000183761"><ele>268.0</ele><time>2026-04-18T09:41:12.999Z</time></trkpt><trkpt lat="43.42192066137405" lon="12.239695948591098"><ele>268.0</ele><time>2026-04-18T09:41:15.999Z</time></trkpt><trkpt lat="43.42186564124957" lon="12.23974511885535"><ele>268.0</ele><time>2026-04-18T09:41:17.999Z</time></trkpt><trkpt lat="43.421808104137064" lon="12.239798545260035"><ele>268.0</ele><time>2026-04-18T09:41:20.999Z</time></trkpt><trkpt lat="43.421711614021554" lon="12.239776452356821"><ele>268.0</ele><time>2026-04-18T09:41:26.999Z</time></trkpt><trkpt lat="43.42164792527293" lon="12.239740954311126"><ele>268.0</ele><time>2026-04-18T09:41:28.999Z</time></trkpt><trkpt lat="43.42157793109362" lon="12.239749353287126"><ele>268.0</ele><time>2026-04-18T09:41:30.999Z</time></trkpt><trkpt lat="43.421501419627106" lon="12.23974310116036"><ele>268.0</ele><time>2026-04-18T09:41:33Z</time></trkpt><trkpt lat="43.4214353177685" lon="12.239758602064638"><ele>268.0</ele><time>2026-04-18T09:41:35Z</time></trkpt><trkpt lat="43.42135269264132" lon="12.239768773995563"><ele>268.0</ele><time>2026-04-18T09:41:39Z</time></trkpt><trkpt lat="43.421288591742616" lon="12.239782529983788"><ele>268.0</ele><time>2026-04-18T09:41:41Z</time></trkpt><trkpt lat="43.42119585405691" lon="12.239812476152894"><ele>267.66666666666663</ele><time>2026-04-18T09:41:44Z</time></trkpt><trkpt lat="43.421126226838744" lon="12.239840609006531"><ele>267.3333333333333</ele><time>2026-04-18T09:41:47Z</time></trkpt><trkpt lat="43.42105101802052" lon="12.239863668289885"><ele>267.0</ele><time>2026-04-18T09:41:50Z</time></trkpt><trkpt lat="43.4209632779213" lon="12.2399031256988"><ele>266.6666666666667</ele><time>2026-04-18T09:41:53Z</time></trkpt><trkpt lat="43.42088536902305" lon="12.239938975210059"><ele>266.33333333333337</ele><time>2026-04-18T09:41:57Z</time></trkpt><trkpt lat="43.420812440862484" lon="12.239976126950765"><ele>266.0</ele><time>2026-04-18T09:42:00Z</time></trkpt><trkpt lat="43.42074425988874" lon="12.24002232343935"><ele>266.0</ele><time>2026-04-18T09:42:03Z</time></trkpt><trkpt lat="43.42066312418219" lon="12.240076281362137"><ele>266.0</ele><time>2026-04-18T09:42:06Z</time></trkpt><trkpt lat="43.4205766944021" lon="12.240150142743795"><ele>266.0</ele><time>2026-04-18T09:42:09Z</time></trkpt><trkpt lat="43.420508643665706" lon="12.240178705934708"><ele>266.0</ele><time>2026-04-18T09:42:11Z</time></trkpt><trkpt lat="43.42044165757594" lon="12.24021121058769"><ele>266.0</ele><time>2026-04-18T09:42:14Z</time></trkpt><trkpt lat="43.42036866638975" lon="12.240277881353446"><ele>266.0</ele><time>2026-04-18T09:42:17Z</time></trkpt><trkpt lat="43.42029146105744" lon="12.24030017979092"><ele>266.33333333333337</ele><time>2026-04-18T09:42:19Z</time></trkpt><trkpt lat="43.420213776874235" lon="12.240338940570474"><ele>266.6666666666667</ele><time>2026-04-18T09:42:22Z</time></trkpt><trkpt lat="43.42012699903394" lon="12.240357880304773"><ele>267.0</ele><time>2026-04-18T09:42:25Z</time></trkpt><trkpt lat="43.4200608808235" lon="12.240392656292112"><ele>267.3333333333333</ele><time>2026-04-18T09:42:26.999Z</time></trkpt><trkpt lat="43.41999142770626" lon="12.240439916457934"><ele>267.66666666666663</ele><time>2026-04-18T09:42:29.999Z</time></trkpt><trkpt lat="43.419924329836846" lon="12.24050502960681"><ele>268.0</ele><time>2026-04-18T09:42:32.999Z</time></trkpt><trkpt lat="43.4198656417465" lon="12.240541602991986"><ele>268.0</ele><time>2026-04-18T09:42:34.999Z</time></trkpt><trkpt lat="43.41979268123089" lon="12.24059360623893"><ele>268.0</ele><time>2026-04-18T09:42:37.999Z</time></trkpt><trkpt lat="43.41972042375456" lon="12.240637830878185"><ele>268.0</ele><time>2026-04-18T09:42:40.999Z</time></trkpt><trkpt lat="43.41963752736633" lon="12.240648691285983"><ele>268.0</ele><time>2026-04-18T09:42:43.999Z</time></trkpt><trkpt lat="43.41955937595863" lon="12.240696074886545"><ele>268.0</ele><time>2026-04-18T09:42:46.999Z</time></trkpt><trkpt lat="43.419494156892505" lon="12.240723802320032"><ele>268.0</ele><time>2026-04-18T09:42:48.999Z</time></trkpt><trkpt lat="43.41942405670035" lon="12.240777778415005"><ele>267.3333333333333</ele><time>2026-04-18T09:42:51.999Z</time></trkpt><trkpt lat="43.41935760919155" lon="12.240779959041454"><ele>266.66666666666663</ele><time>2026-04-18T09:42:53.999Z</time></trkpt><trkpt lat="43.4192898513353" lon="12.240865004052052"><ele>266.0</ele><time>2026-04-18T09:42:56.999Z</time></trkpt><trkpt lat="43.41920104051594" lon="12.24089590200692"><ele>265.3333333333333</ele><time>2026-04-18T09:42:59.999Z</time></trkpt><trkpt lat="43.41913262849939" lon="12.240911673427597"><ele>264.6666666666667</ele><time>2026-04-18T09:43:01.999Z</time></trkpt><trkpt lat="43.41906442873018" lon="12.240968576937568"><ele>264.0</ele><time>2026-04-18T09:43:04.999Z</time></trkpt><trkpt lat="43.418992204401306" lon="12.24100705964608"><ele>264.0</ele><time>2026-04-18T09:43:07.999Z</time></trkpt><trkpt lat="43.418916633902896" lon="12.241049302979327"><ele>264.0</ele><time>2026-04-18T09:43:10.999Z</time></trkpt><trkpt lat="43.41886498188673" lon="12.241104667107233"><ele>264.0</ele><time>2026-04-18T09:43:13.999Z</time></trkpt><trkpt lat="43.41879415827654" lon="12.24113392311954"><ele>264.0</ele><time>2026-04-18T09:43:16.999Z</time></trkpt><trkpt lat="43.418723238733676" lon="12.241193060103546"><ele>264.0</ele><time>2026-04-18T09:43:19.999Z</time></trkpt><trkpt lat="43.4186400366015" lon="12.24124933026385"><ele>264.0</ele><time>2026-04-18T09:43:22.999Z</time></trkpt><trkpt lat="43.41856354739706" lon="12.241308601075593"><ele>264.5</ele><time>2026-04-18T09:43:25.999Z</time></trkpt><trkpt lat="43.41848242871988" lon="12.241357460646908"><ele>265.0</ele><time>2026-04-18T09:43:28.999Z</time></trkpt><trkpt lat="43.418417621047276" lon="12.24142248563745"><ele>265.5</ele><time>2026-04-18T09:43:31.999Z</time></trkpt><trkpt lat="43.41835128576362" lon="12.241472723160761"><ele>266.0</ele><time>2026-04-18T09:43:34.999Z</time></trkpt><trkpt lat="43.418273383086394" lon="12.241521621941734"><ele>266.5</ele><time>2026-04-18T09:43:37.999Z</time></trkpt><trkpt lat="43.41821293312739" lon="12.241547808540833"><ele>267.0</ele><time>2026-04-18T09:43:40Z</time></trkpt><trkpt lat="43.418131461447075" lon="12.241601380593625"><ele>267.0</ele><time>2026-04-18T09:43:43Z</time></trkpt><trkpt lat="43.418045004652534" lon="12.241637359178316"><ele>267.0</ele><time>2026-04-18T09:43:46Z</time></trkpt><trkpt lat="43.41796973438887" lon="12.241680297115234"><ele>267.0</ele><time>2026-04-18T09:43:49Z</time></trkpt><trkpt lat="43.41789074299414" lon="12.241731711726722"><ele>267.0</ele><time>2026-04-18T09:43:52Z</time></trkpt><trkpt lat="43.41782120770208" lon="12.241780198521964"><ele>267.0</ele><time>2026-04-18T09:43:55Z</time></trkpt><trkpt lat="43.417745782292236" lon="12.241823865178903"><ele>267.0</ele><time>2026-04-18T09:43:58Z</time></trkpt><trkpt lat="43.41766564833889" lon="12.24186352720198"><ele>267.0</ele><time>2026-04-18T09:44:01Z</time></trkpt><trkpt lat="43.417592839710224" lon="12.24190332930652"><ele>267.0</ele><time>2026-04-18T09:44:04Z</time></trkpt><trkpt lat="43.417521945196796" lon="12.241955422759878"><ele>267.0</ele><time>2026-04-18T09:44:07Z</time></trkpt><trkpt lat="43.41746712124116" lon="12.242000680525832"><ele>267.0</ele><time>2026-04-18T09:44:09Z</time></trkpt><trkpt lat="43.41739509845491" lon="12.242034704193848"><ele>267.0</ele><time>2026-04-18T09:44:12Z</time></trkpt><trkpt lat="43.41732597645712" lon="12.242081696688851"><ele>267.0</ele><time>2026-04-18T09:44:15Z</time></trkpt><trkpt lat="43.41724279723248" lon="12.242110147207448"><ele>267.0</ele><time>2026-04-18T09:44:18Z</time></trkpt><trkpt lat="43.41715667185185" lon="12.24214674747439"><ele>267.0</ele><time>2026-04-18T09:44:21Z</time></trkpt><trkpt lat="43.417083752331905" lon="12.242190454801165"><ele>267.0</ele><time>2026-04-18T09:44:24Z</time></trkpt><trkpt lat="43.41700468807881" lon="12.242216365343767"><ele>267.0</ele><time>2026-04-18T09:44:27Z</time></trkpt><trkpt lat="43.41693057117237" lon="12.242275381304873"><ele>267.0</ele><time>2026-04-18T09:44:29.999Z</time></trkpt><trkpt lat="43.41685594038477" lon="12.242317033256027"><ele>267.0</ele><time>2026-04-18T09:44:32.999Z</time></trkpt><trkpt lat="43.416764095966876" lon="12.242345900536083"><ele>267.0</ele><time>2026-04-18T09:44:35.999Z</time></trkpt><trkpt lat="43.4166858941263" lon="12.242386001539144"><ele>267.0</ele><time>2026-04-18T09:44:38.999Z</time></trkpt><trkpt lat="43.416613202565884" lon="12.24242163314764"><ele>267.0</ele><time>2026-04-18T09:44:41.999Z</time></trkpt><trkpt lat="43.41654242933585" lon="12.242441488088092"><ele>267.0</ele><time>2026-04-18T09:44:44.999Z</time></trkpt><trkpt lat="43.4164643312295" lon="12.242480946355942"><ele>267.0</ele><time>2026-04-18T09:44:47.999Z</time></trkpt><trkpt lat="43.41637738460954" lon="12.242509919496408"><ele>267.0</ele><time>2026-04-18T09:44:50.999Z</time></trkpt><trkpt lat="43.41629442541647" lon="12.242537455898047"><ele>267.0</ele><time>2026-04-18T09:44:53.999Z</time></trkpt><trkpt lat="43.41621783164768" lon="12.242574508029424"><ele>267.0</ele><time>2026-04-18T09:44:56.999Z</time></trkpt><trkpt lat="43.41614126633504" lon="12.24259621253416"><ele>267.0</ele><time>2026-04-18T09:44:59.999Z</time></trkpt><trkpt lat="43.41606749644313" lon="12.242633365257962"><ele>267.0</ele><time>2026-04-18T09:45:02.999Z</time></trkpt><trkpt lat="43.41599316946781" lon="12.242663943177025"><ele>267.0</ele><time>2026-04-18T09:45:05.999Z</time></trkpt><trkpt lat="43.41591000129183" lon="12.242709192808425"><ele>267.0</ele><time>2026-04-18T09:45:08.999Z</time></trkpt><trkpt lat="43.41583117108505" lon="12.242724227166244"><ele>267.0</ele><time>2026-04-18T09:45:11.999Z</time></trkpt><trkpt lat="43.41574627350911" lon="12.242752116832099"><ele>267.0</ele><time>2026-04-18T09:45:14.999Z</time></trkpt><trkpt lat="43.41567343234494" lon="12.24279470249955"><ele>267.0</ele><time>2026-04-18T09:45:17.999Z</time></trkpt><trkpt lat="43.415601368770204" lon="12.242786106568875"><ele>267.0</ele><time>2026-04-18T09:45:20.999Z</time></trkpt><trkpt lat="43.4155379118698" lon="12.242766092080126"><ele>267.0</ele><time>2026-04-18T09:45:23.999Z</time></trkpt><trkpt lat="43.41546406261695" lon="12.242802105194833"><ele>267.0</ele><time>2026-04-18T09:45:27.999Z</time></trkpt><trkpt lat="43.4153890922358" lon="12.242842533688972"><ele>267.14285714285717</ele><time>2026-04-18T09:45:31.999Z</time></trkpt><trkpt lat="43.41532061232567" lon="12.24288043177946"><ele>267.2857142857143</ele><time>2026-04-18T09:45:34.999Z</time></trkpt><trkpt lat="43.41524909002759" lon="12.24289997959288"><ele>267.42857142857144</ele><time>2026-04-18T09:45:37.999Z</time></trkpt><trkpt lat="43.41519418092931" lon="12.242945665430819"><ele>267.57142857142856</ele><time>2026-04-18T09:45:40.998Z</time></trkpt><trkpt lat="43.415117273517446" lon="12.242995835377247"><ele>267.7142857142857</ele><time>2026-04-18T09:45:45Z</time></trkpt><trkpt lat="43.415058217061045" lon="12.243035750142305"><ele>267.8571428571429</ele><time>2026-04-18T09:45:47Z</time></trkpt><trkpt lat="43.414974826250116" lon="12.243057967085281"><ele>268.0</ele><time>2026-04-18T09:45:50Z</time></trkpt><trkpt lat="43.41490512928138" lon="12.243083689004369"><ele>268.0</ele><time>2026-04-18T09:45:53Z</time></trkpt><trkpt lat="43.414830362128335" lon="12.24309259986306"><ele>268.0</ele><time>2026-04-18T09:45:56Z</time></trkpt><trkpt lat="43.414754155699285" lon="12.243161232250834"><ele>268.0</ele><time>2026-04-18T09:45:59Z</time></trkpt><trkpt lat="43.41471679170871" lon="12.243249670359441"><ele>268.0</ele><time>2026-04-18T09:46:02Z</time></trkpt><trkpt lat="43.414650997998386" lon="12.243306786538742"><ele>268.0</ele><time>2026-04-18T09:46:06Z</time></trkpt><trkpt lat="43.41458733474058" lon="12.243327413104387"><ele>268.0</ele><time>2026-04-18T09:46:08Z</time></trkpt><trkpt lat="43.414526529417024" lon="12.243360343582093"><ele>268.0</ele><time>2026-04-18T09:46:10Z</time></trkpt><trkpt lat="43.41446565333682" lon="12.243385520530266"><ele>267.5</ele><time>2026-04-18T09:46:12Z</time></trkpt><trkpt lat="43.41440141201331" lon="12.24342311453761"><ele>267.0</ele><time>2026-04-18T09:46:14Z</time></trkpt><trkpt lat="43.4143387968586" lon="12.243446466756925"><ele>266.5</ele><time>2026-04-18T09:46:16Z</time></trkpt><trkpt lat="43.41426149150902" lon="12.243492740436038"><ele>266.0</ele><time>2026-04-18T09:46:19Z</time></trkpt><trkpt lat="43.41418345513716" lon="12.243518000071594"><ele>265.5</ele><time>2026-04-18T09:46:22Z</time></trkpt><trkpt lat="43.414110833043985" lon="12.243551311678127"><ele>265.0</ele><time>2026-04-18T09:46:25Z</time></trkpt><trkpt lat="43.41403583367792" lon="12.24359347187129"><ele>265.0</ele><time>2026-04-18T09:46:28Z</time></trkpt><trkpt lat="43.41394671527297" lon="12.24360483246594"><ele>265.0</ele><time>2026-04-18T09:46:31Z</time></trkpt><trkpt lat="43.41386587733657" lon="12.243639975228414"><ele>265.0</ele><time>2026-04-18T09:46:34Z</time></trkpt><trkpt lat="43.4137759673389" lon="12.243670313287007"><ele>265.0</ele><time>2026-04-18T09:46:36.999Z</time></trkpt><trkpt lat="43.413706697558176" lon="12.243706171417989"><ele>265.0</ele><time>2026-04-18T09:46:39.999Z</time></trkpt><trkpt lat="43.41362821569972" lon="12.243733822127322"><ele>265.0</ele><time>2026-04-18T09:46:42.999Z</time></trkpt><trkpt lat="43.41355220024675" lon="12.243767425744762"><ele>264.66666666666663</ele><time>2026-04-18T09:46:45.999Z</time></trkpt><trkpt lat="43.41345918582198" lon="12.243797936560798"><ele>264.3333333333333</ele><time>2026-04-18T09:46:48.999Z</time></trkpt><trkpt lat="43.41338937598945" lon="12.24381544809326"><ele>264.0</ele><time>2026-04-18T09:46:51.999Z</time></trkpt><trkpt lat="43.4133012067385" lon="12.243833521830346"><ele>263.6666666666667</ele><time>2026-04-18T09:46:54.999Z</time></trkpt><trkpt lat="43.41322210730676" lon="12.24387617755702"><ele>263.33333333333337</ele><time>2026-04-18T09:46:57.999Z</time></trkpt><trkpt lat="43.41314125359139" lon="12.243918949124716"><ele>263.0</ele><time>2026-04-18T09:47:00.999Z</time></trkpt><trkpt lat="43.41306410448427" lon="12.243965090197811"><ele>263.0</ele><time>2026-04-18T09:47:03.999Z</time></trkpt><trkpt lat="43.412997212749715" lon="12.244003398757988"><ele>263.0</ele><time>2026-04-18T09:47:06.999Z</time></trkpt><trkpt lat="43.41290721422544" lon="12.244046969319859"><ele>263.0</ele><time>2026-04-18T09:47:09.999Z</time></trkpt><trkpt lat="43.41283504831888" lon="12.244067966657651"><ele>263.0</ele><time>2026-04-18T09:47:12.999Z</time></trkpt><trkpt lat="43.41274921395775" lon="12.244102826537084"><ele>263.0</ele><time>2026-04-18T09:47:15.999Z</time></trkpt><trkpt lat="43.412670374965764" lon="12.244126648120064"><ele>263.0</ele><time>2026-04-18T09:47:18.999Z</time></trkpt><trkpt lat="43.41258087711168" lon="12.244153814195634"><ele>263.33333333333337</ele><time>2026-04-18T09:47:21.999Z</time></trkpt><trkpt lat="43.412498366239284" lon="12.244184955051601"><ele>263.6666666666667</ele><time>2026-04-18T09:47:24.999Z</time></trkpt><trkpt lat="43.41244174108417" lon="12.244245040508053"><ele>264.0</ele><time>2026-04-18T09:47:27.999Z</time></trkpt><trkpt lat="43.41236778948847" lon="12.244276650523739"><ele>264.3333333333333</ele><time>2026-04-18T09:47:30.999Z</time></trkpt><trkpt lat="43.41228579819852" lon="12.244296449629422"><ele>264.66666666666663</ele><time>2026-04-18T09:47:33.999Z</time></trkpt><trkpt lat="43.4122157552324" lon="12.244324649384593"><ele>265.0</ele><time>2026-04-18T09:47:36.999Z</time></trkpt><trkpt lat="43.412130141733186" lon="12.244361091349788"><ele>265.0</ele><time>2026-04-18T09:47:39.999Z</time></trkpt><trkpt lat="43.41206375630589" lon="12.244417804315555"><ele>265.0</ele><time>2026-04-18T09:47:42.999Z</time></trkpt><trkpt lat="43.4119922587383" lon="12.244454149233038"><ele>265.0</ele><time>2026-04-18T09:47:45.999Z</time></trkpt><trkpt lat="43.41191298984381" lon="12.244483206777792"><ele>265.0</ele><time>2026-04-18T09:47:48.998Z</time></trkpt><trkpt lat="43.411825947424035" lon="12.244492271423464"><ele>265.0</ele><time>2026-04-18T09:47:52Z</time></trkpt><trkpt lat="43.41173605089535" lon="12.244500906818118"><ele>265.0</ele><time>2026-04-18T09:47:55Z</time></trkpt><trkpt lat="43.41166388433205" lon="12.244512924892794"><ele>265.0</ele><time>2026-04-18T09:47:58Z</time></trkpt><trkpt lat="43.411591607690134" lon="12.244548995794482"><ele>265.0</ele><time>2026-04-18T09:48:01Z</time></trkpt><trkpt lat="43.411511440966784" lon="12.24457094438364"><ele>265.0</ele><time>2026-04-18T09:48:04Z</time></trkpt><trkpt lat="43.411436567886675" lon="12.244612397704744"><ele>265.0</ele><time>2026-04-18T09:48:07Z</time></trkpt><trkpt lat="43.41136472824242" lon="12.244652866668272"><ele>265.0</ele><time>2026-04-18T09:48:10Z</time></trkpt><trkpt lat="43.41129761461443" lon="12.244706903679507"><ele>265.0</ele><time>2026-04-18T09:48:13Z</time></trkpt><trkpt lat="43.411240655026674" lon="12.2447605446904"><ele>265.0</ele><time>2026-04-18T09:48:16Z</time></trkpt><trkpt lat="43.41115534332275" lon="12.244801455601598"><ele>265.0</ele><time>2026-04-18T09:48:19Z</time></trkpt><trkpt lat="43.41107965081761" lon="12.244840446391619"><ele>265.0</ele><time>2026-04-18T09:48:22Z</time></trkpt><trkpt lat="43.41101675852669" lon="12.244890456880249"><ele>265.0</ele><time>2026-04-18T09:48:25Z</time></trkpt><trkpt lat="43.4109408349427" lon="12.244936953445176"><ele>265.0</ele><time>2026-04-18T09:48:28Z</time></trkpt><trkpt lat="43.41085973758999" lon="12.244984711541496"><ele>265.0</ele><time>2026-04-18T09:48:31Z</time></trkpt><trkpt lat="43.41079631105581" lon="12.245045598257553"><ele>265.0</ele><time>2026-04-18T09:48:34Z</time></trkpt><trkpt lat="43.410723469567095" lon="12.24505124621941"><ele>265.0</ele><time>2026-04-18T09:48:37Z</time></trkpt><trkpt lat="43.41068377827033" lon="12.244979873291914"><ele>265.0</ele><time>2026-04-18T09:48:39.999Z</time></trkpt><trkpt lat="43.41059075169544" lon="12.244981953721084"><ele>265.0</ele><time>2026-04-18T09:48:43.999Z</time></trkpt><trkpt lat="43.410523007314474" lon="12.245036996431654"><ele>265.0</ele><time>2026-04-18T09:48:46.999Z</time></trkpt><trkpt lat="43.410483053727226" lon="12.24513191366874"><ele>265.0</ele><time>2026-04-18T09:48:50.999Z</time></trkpt><trkpt lat="43.41040952132304" lon="12.24519655298514"><ele>265.16666666666663</ele><time>2026-04-18T09:48:53.999Z</time></trkpt><trkpt lat="43.410348619381985" lon="12.245244523000633"><ele>265.3333333333333</ele><time>2026-04-18T09:48:56.999Z</time></trkpt><trkpt lat="43.41026376593802" lon="12.245296054843731"><ele>265.5</ele><time>2026-04-18T09:48:59.999Z</time></trkpt><trkpt lat="43.41018592296332" lon="12.245348381606208"><ele>265.6666666666667</ele><time>2026-04-18T09:49:02.999Z</time></trkpt><trkpt lat="43.41010396677947" lon="12.245388325812037"><ele>265.83333333333337</ele><time>2026-04-18T09:49:05.999Z</time></trkpt><trkpt lat="43.410018639670646" lon="12.245435759095617"><ele>266.0</ele><time>2026-04-18T09:49:08.999Z</time></trkpt><trkpt lat="43.40994394884545" lon="12.245474874874667"><ele>266.0</ele><time>2026-04-18T09:49:11.999Z</time></trkpt><trkpt lat="43.40986032621548" lon="12.245510375226875"><ele>266.0</ele><time>2026-04-18T09:49:14.999Z</time></trkpt><trkpt lat="43.40978579062897" lon="12.245522514159777"><ele>266.0</ele><time>2026-04-18T09:49:17.999Z</time></trkpt><trkpt lat="43.40972402190608" lon="12.245541250738237"><ele>266.0</ele><time>2026-04-18T09:49:19.999Z</time></trkpt><trkpt lat="43.409648590749875" lon="12.245590087531063"><ele>266.0</ele><time>2026-04-18T09:49:22.999Z</time></trkpt><trkpt lat="43.40955873640806" lon="12.245624520066576"><ele>266.0</ele><time>2026-04-18T09:49:25.999Z</time></trkpt><trkpt lat="43.40947565091927" lon="12.245654405429299"><ele>265.6666666666667</ele><time>2026-04-18T09:49:28.999Z</time></trkpt><trkpt lat="43.409387566885016" lon="12.245683418371927"><ele>265.33333333333337</ele><time>2026-04-18T09:49:31.999Z</time></trkpt><trkpt lat="43.40931171870792" lon="12.245729401071333"><ele>265.0</ele><time>2026-04-18T09:49:34.999Z</time></trkpt><trkpt lat="43.4092224457545" lon="12.245736361481153"><ele>264.6666666666667</ele><time>2026-04-18T09:49:37.999Z</time></trkpt><trkpt lat="43.409139107776994" lon="12.245712811782107"><ele>264.3333333333333</ele><time>2026-04-18T09:49:40.999Z</time></trkpt><trkpt lat="43.409065796713534" lon="12.245697314640799"><ele>264.0</ele><time>2026-04-18T09:49:43.999Z</time></trkpt><trkpt lat="43.40898951402873" lon="12.245714073013689"><ele>264.0</ele><time>2026-04-18T09:49:46.999Z</time></trkpt><trkpt lat="43.40889141023047" lon="12.245739154024918"><ele>264.0</ele><time>2026-04-18T09:49:49.998Z</time></trkpt><trkpt lat="43.4088150002502" lon="12.245749035838996"><ele>264.0</ele><time>2026-04-18T09:49:52.998Z</time></trkpt><trkpt lat="43.408732528668544" lon="12.24577055680393"><ele>264.0</ele><time>2026-04-18T09:49:55.998Z</time></trkpt><trkpt lat="43.40864480334071" lon="12.245783335786777"><ele>264.0</ele><time>2026-04-18T09:49:59Z</time></trkpt><trkpt lat="43.408571587587396" lon="12.245788976589377"><ele>264.0</ele><time>2026-04-18T09:50:02Z</time></trkpt><trkpt lat="43.40847616920352" lon="12.245801819720949"><ele>264.0</ele><time>2026-04-18T09:50:05Z</time></trkpt><trkpt lat="43.408396210434326" lon="12.245810848761389"><ele>264.0</ele><time>2026-04-18T09:50:08Z</time></trkpt><trkpt lat="43.408316408725625" lon="12.245812763677748"><ele>264.0</ele><time>2026-04-18T09:50:11Z</time></trkpt><trkpt lat="43.40823934041025" lon="12.245836126788177"><ele>264.0</ele><time>2026-04-18T09:50:14Z</time></trkpt><trkpt lat="43.40815403977261" lon="12.245868884554513"><ele>264.0</ele><time>2026-04-18T09:50:17Z</time></trkpt><trkpt lat="43.40807324533984" lon="12.24587703382488"><ele>264.0</ele><time>2026-04-18T09:50:20Z</time></trkpt><trkpt lat="43.408010347825474" lon="12.245893409920011"><ele>264.3333333333333</ele><time>2026-04-18T09:50:22Z</time></trkpt><trkpt lat="43.40793648302256" lon="12.245917367639034"><ele>264.6666666666667</ele><time>2026-04-18T09:50:25Z</time></trkpt><trkpt lat="43.40785459918995" lon="12.245937578460214"><ele>265.0</ele><time>2026-04-18T09:50:28Z</time></trkpt><trkpt lat="43.40777287760052" lon="12.245889033148984"><ele>265.33333333333337</ele><time>2026-04-18T09:50:31Z</time></trkpt><trkpt lat="43.40770740550531" lon="12.245873401380775"><ele>265.6666666666667</ele><time>2026-04-18T09:50:33Z</time></trkpt><trkpt lat="43.40761695531368" lon="12.245871954655668"><ele>266.0</ele><time>2026-04-18T09:50:36Z</time></trkpt><trkpt lat="43.40754716880094" lon="12.245837400787861"><ele>266.0</ele><time>2026-04-18T09:50:38Z</time></trkpt><trkpt lat="43.40748241877918" lon="12.245822212584093"><ele>266.0</ele><time>2026-04-18T09:50:40Z</time></trkpt><trkpt lat="43.40739937635454" lon="12.245800734900033"><ele>266.0</ele><time>2026-04-18T09:50:43Z</time></trkpt><trkpt lat="43.407321321703336" lon="12.245771455006322"><ele>266.0</ele><time>2026-04-18T09:50:45.999Z</time></trkpt><trkpt lat="43.40725340846366" lon="12.245751433751577"><ele>266.0</ele><time>2026-04-18T09:50:48.999Z</time></trkpt><trkpt lat="43.40716177163645" lon="12.24572886517532"><ele>266.0</ele><time>2026-04-18T09:50:51.999Z</time></trkpt><trkpt lat="43.40708335312329" lon="12.245712073789475"><ele>265.6666666666667</ele><time>2026-04-18T09:50:54.999Z</time></trkpt><trkpt lat="43.40701312118253" lon="12.245712283102836"><ele>265.33333333333337</ele><time>2026-04-18T09:50:57.999Z</time></trkpt><trkpt lat="43.40693363644598" lon="12.2457263194623"><ele>265.0</ele><time>2026-04-18T09:51:00.999Z</time></trkpt><trkpt lat="43.406857631824934" lon="12.24574882047462"><ele>264.6666666666667</ele><time>2026-04-18T09:51:03.999Z</time></trkpt><trkpt lat="43.4067756640441" lon="12.24571848942531"><ele>264.3333333333333</ele><time>2026-04-18T09:51:06.999Z</time></trkpt><trkpt lat="43.40669528983416" lon="12.245721953223837"><ele>264.0</ele><time>2026-04-18T09:51:09.999Z</time></trkpt><trkpt lat="43.40662734072639" lon="12.245703084467639"><ele>264.0</ele><time>2026-04-18T09:51:11.999Z</time></trkpt><trkpt lat="43.406566669916245" lon="12.245676485619411"><ele>264.0</ele><time>2026-04-18T09:51:13.999Z</time></trkpt><trkpt lat="43.406487219756386" lon="12.245615056662977"><ele>264.0</ele><time>2026-04-18T09:51:16.999Z</time></trkpt><trkpt lat="43.40641543290773" lon="12.245592485553745"><ele>264.0</ele><time>2026-04-18T09:51:19.999Z</time></trkpt><trkpt lat="43.40635252342422" lon="12.245554511408828"><ele>264.0</ele><time>2026-04-18T09:51:22.999Z</time></trkpt><trkpt lat="43.4062642641707" lon="12.245562260020217"><ele>264.0</ele><time>2026-04-18T09:51:26.999Z</time></trkpt><trkpt lat="43.40618132780497" lon="12.245578058863101"><ele>264.1666666666667</ele><time>2026-04-18T09:51:29.999Z</time></trkpt><trkpt lat="43.40609660016179" lon="12.245539965918192"><ele>264.3333333333333</ele><time>2026-04-18T09:51:32.999Z</time></trkpt><trkpt lat="43.406025579784625" lon="12.245532785991815"><ele>264.5</ele><time>2026-04-18T09:51:34.999Z</time></trkpt><trkpt lat="43.405938060255984" lon="12.24552117731662"><ele>264.66666666666663</ele><time>2026-04-18T09:51:37.999Z</time></trkpt><trkpt lat="43.40585890471677" lon="12.245507234259698"><ele>264.8333333333333</ele><time>2026-04-18T09:51:40.999Z</time></trkpt><trkpt lat="43.40578318708033" lon="12.245476293802785"><ele>265.0</ele><time>2026-04-18T09:51:43.999Z</time></trkpt><trkpt lat="43.40571340613804" lon="12.24542962068624"><ele>264.99999999999994</ele><time>2026-04-18T09:51:46.999Z</time></trkpt><trkpt lat="43.405646328509036" lon="12.245421640071347"><ele>265.0</ele><time>2026-04-18T09:51:48.999Z</time></trkpt><trkpt lat="43.40556636075749" lon="12.245393865622518"><ele>265.0</ele><time>2026-04-18T09:51:51.999Z</time></trkpt><trkpt lat="43.405483805003925" lon="12.245392237522989"><ele>265.0</ele><time>2026-04-18T09:51:54.999Z</time></trkpt><trkpt lat="43.40542413356444" lon="12.245362505908314"><ele>265.0</ele><time>2026-04-18T09:51:56.998Z</time></trkpt><trkpt lat="43.40534896560122" lon="12.245343974076908"><ele>264.99999999999994</ele><time>2026-04-18T09:51:59.998Z</time></trkpt><trkpt lat="43.40528782191662" lon="12.245304356802084"><ele>265.0</ele><time>2026-04-18T09:52:01.998Z</time></trkpt><trkpt lat="43.40522003445682" lon="12.24528668438694"><ele>264.8333333333333</ele><time>2026-04-18T09:52:04Z</time></trkpt><trkpt lat="43.40514963602893" lon="12.245230264066922"><ele>264.66666666666663</ele><time>2026-04-18T09:52:07Z</time></trkpt><trkpt lat="43.405084490584976" lon="12.245219695800603"><ele>264.5</ele><time>2026-04-18T09:52:09Z</time></trkpt><trkpt lat="43.40500860214407" lon="12.245175558169262"><ele>264.3333333333333</ele><time>2026-04-18T09:52:12Z</time></trkpt><trkpt lat="43.40492483410178" lon="12.245160659003286"><ele>264.1666666666667</ele><time>2026-04-18T09:52:15Z</time></trkpt><trkpt lat="43.40486219274504" lon="12.245117075587553"><ele>264.0</ele><time>2026-04-18T09:52:18Z</time></trkpt><trkpt lat="43.404785598492445" lon="12.245064714757481"><ele>264.0</ele><time>2026-04-18T09:52:21Z</time></trkpt><trkpt lat="43.404710935933764" lon="12.245044975071332"><ele>264.0</ele><time>2026-04-18T09:52:24Z</time></trkpt><trkpt lat="43.40463885542032" lon="12.244983733569363"><ele>264.0</ele><time>2026-04-18T09:52:27Z</time></trkpt><trkpt lat="43.40457276538655" lon="12.244952021602495"><ele>264.0</ele><time>2026-04-18T09:52:29Z</time></trkpt><trkpt lat="43.40450297679592" lon="12.24490500882772"><ele>264.0</ele><time>2026-04-18T09:52:32Z</time></trkpt><trkpt lat="43.40443698289599" lon="12.244867391389063"><ele>264.0</ele><time>2026-04-18T09:52:35Z</time></trkpt><trkpt lat="43.40434536295628" lon="12.24485576666623"><ele>264.1666666666667</ele><time>2026-04-18T09:52:38Z</time></trkpt><trkpt lat="43.40426948511738" lon="12.244819208799958"><ele>264.3333333333333</ele><time>2026-04-18T09:52:41Z</time></trkpt><trkpt lat="43.404180398532965" lon="12.244786771265181"><ele>264.5</ele><time>2026-04-18T09:52:44Z</time></trkpt><trkpt lat="43.40409447962852" lon="12.244743985360076"><ele>264.66666666666663</ele><time>2026-04-18T09:52:47Z</time></trkpt><trkpt lat="43.40401396087342" lon="12.244714501394075"><ele>264.8333333333333</ele><time>2026-04-18T09:52:50Z</time></trkpt><trkpt lat="43.403925712624265" lon="12.244699006200355"><ele>265.0</ele><time>2026-04-18T09:52:52.999Z</time></trkpt><trkpt lat="43.40382865073917" lon="12.244669942592049"><ele>265.0</ele><time>2026-04-18T09:52:56.999Z</time></trkpt><trkpt lat="43.40375094154743" lon="12.244651321547805"><ele>265.0</ele><time>2026-04-18T09:52:59.999Z</time></trkpt><trkpt lat="43.40368258938775" lon="12.244640582135585"><ele>265.0</ele><time>2026-04-18T09:53:02.999Z</time></trkpt><trkpt lat="43.40359238139467" lon="12.244634349074655"><ele>265.0</ele><time>2026-04-18T09:53:05.999Z</time></trkpt><trkpt lat="43.40352218907482" lon="12.244617602147875"><ele>265.0</ele><time>2026-04-18T09:53:08.999Z</time></trkpt><trkpt lat="43.40344410179856" lon="12.24461588398575"><ele>265.0</ele><time>2026-04-18T09:53:11.999Z</time></trkpt><trkpt lat="43.403359615681964" lon="12.244615832255768"><ele>265.0</ele><time>2026-04-18T09:53:14.999Z</time></trkpt><trkpt lat="43.40328372645633" lon="12.244603945616355"><ele>265.0</ele><time>2026-04-18T09:53:17.999Z</time></trkpt><trkpt lat="43.403205703998275" lon="12.244596142972906"><ele>265.0</ele><time>2026-04-18T09:53:20.999Z</time></trkpt><trkpt lat="43.40314391889414" lon="12.244616106458217"><ele>265.0</ele><time>2026-04-18T09:53:22.999Z</time></trkpt><trkpt lat="43.40306171257992" lon="12.244624539353806"><ele>265.0</ele><time>2026-04-18T09:53:25.999Z</time></trkpt><trkpt lat="43.402982822999874" lon="12.244620220772143"><ele>265.0</ele><time>2026-04-18T09:53:28.999Z</time></trkpt><trkpt lat="43.402901344684985" lon="12.244665092103894"><ele>265.0</ele><time>2026-04-18T09:53:31.999Z</time></trkpt><trkpt lat="43.40282947090496" lon="12.244716364958121"><ele>265.0</ele><time>2026-04-18T09:53:33.999Z</time></trkpt><trkpt lat="43.402745116280016" lon="12.24471221219897"><ele>265.0</ele><time>2026-04-18T09:53:36.999Z</time></trkpt><trkpt lat="43.402683029103926" lon="12.244745405839536"><ele>265.0</ele><time>2026-04-18T09:53:40.999Z</time></trkpt><trkpt lat="43.402595182334544" lon="12.244766704202133"><ele>265.0</ele><time>2026-04-18T09:53:43.999Z</time></trkpt><trkpt lat="43.402509768457044" lon="12.244748538577113"><ele>265.0</ele><time>2026-04-18T09:53:46.999Z</time></trkpt><trkpt lat="43.402439567073245" lon="12.244770109350364"><ele>265.0</ele><time>2026-04-18T09:53:48.999Z</time></trkpt><trkpt lat="43.402370223959416" lon="12.244783465356107"><ele>265.0</ele><time>2026-04-18T09:53:50.999Z</time></trkpt><trkpt lat="43.40230621862851" lon="12.24477249892317"><ele>265.0</ele><time>2026-04-18T09:53:52.999Z</time></trkpt><trkpt lat="43.40222184639403" lon="12.244787716300133"><ele>265.0</ele><time>2026-04-18T09:53:55.999Z</time></trkpt><trkpt lat="43.40212847696552" lon="12.244770961986838"><ele>265.0</ele><time>2026-04-18T09:53:58.999Z</time></trkpt><trkpt lat="43.402047612018066" lon="12.244758201124204"><ele>265.0</ele><time>2026-04-18T09:54:01.998Z</time></trkpt><trkpt lat="43.40196072919209" lon="12.244751158571493"><ele>264.8333333333333</ele><time>2026-04-18T09:54:04.998Z</time></trkpt><trkpt lat="43.40189006684272" lon="12.244758080914703"><ele>264.66666666666663</ele><time>2026-04-18T09:54:06.998Z</time></trkpt><trkpt lat="43.40180396964792" lon="12.244781999948492"><ele>264.5</ele><time>2026-04-18T09:54:10Z</time></trkpt><trkpt lat="43.40173181986648" lon="12.244817269693288"><ele>264.3333333333333</ele><time>2026-04-18T09:54:13Z</time></trkpt><trkpt lat="43.401667666032246" lon="12.244867812658748"><ele>264.1666666666667</ele><time>2026-04-18T09:54:16Z</time></trkpt><trkpt lat="43.401576233368274" lon="12.244888922074708"><ele>264.0</ele><time>2026-04-18T09:54:19Z</time></trkpt><trkpt lat="43.40149719666978" lon="12.244895277138626"><ele>263.6666666666667</ele><time>2026-04-18T09:54:22Z</time></trkpt><trkpt lat="43.40141062358278" lon="12.24490236365587"><ele>263.3333333333333</ele><time>2026-04-18T09:54:25Z</time></trkpt><trkpt lat="43.40132926902719" lon="12.244924732354725"><ele>263.0</ele><time>2026-04-18T09:54:28Z</time></trkpt><trkpt lat="43.401256214887" lon="12.244951885217507"><ele>262.66666666666663</ele><time>2026-04-18T09:54:31Z</time></trkpt><trkpt lat="43.40117205641972" lon="12.24496597756175"><ele>262.3333333333333</ele><time>2026-04-18T09:54:34Z</time></trkpt><trkpt lat="43.401089944146946" lon="12.244979638803388"><ele>262.0</ele><time>2026-04-18T09:54:37Z</time></trkpt><trkpt lat="43.40100895132281" lon="12.245001187251853"><ele>262.0</ele><time>2026-04-18T09:54:40Z</time></trkpt><trkpt lat="43.400931937473786" lon="12.245036470252721"><ele>262.0</ele><time>2026-04-18T09:54:43Z</time></trkpt><trkpt lat="43.400858913269964" lon="12.245035776771468"><ele>262.0</ele><time>2026-04-18T09:54:46Z</time></trkpt><trkpt lat="43.40078912995318" lon="12.24505832087187"><ele>262.0</ele><time>2026-04-18T09:54:48Z</time></trkpt><trkpt lat="43.40070924582385" lon="12.245068321971624"><ele>262.0</ele><time>2026-04-18T09:54:51Z</time></trkpt><trkpt lat="43.400625769758925" lon="12.245095587675635"><ele>262.0</ele><time>2026-04-18T09:54:54Z</time></trkpt><trkpt lat="43.40055353065584" lon="12.245116617339411"><ele>262.0</ele><time>2026-04-18T09:54:57Z</time></trkpt><trkpt lat="43.40048861073027" lon="12.245124445962807"><ele>262.0</ele><time>2026-04-18T09:54:59.999Z</time></trkpt><trkpt lat="43.40041818389659" lon="12.24511632515356"><ele>262.0</ele><time>2026-04-18T09:55:02.999Z</time></trkpt><trkpt lat="43.40034416775062" lon="12.245159532338546"><ele>262.0</ele><time>2026-04-18T09:55:05.999Z</time></trkpt><trkpt lat="43.40025853317147" lon="12.245229048055034"><ele>262.0</ele><time>2026-04-18T09:55:08.999Z</time></trkpt><trkpt lat="43.400177274174666" lon="12.24527404860398"><ele>262.0</ele><time>2026-04-18T09:55:11.999Z</time></trkpt><trkpt lat="43.40010582277289" lon="12.24526299129594"><ele>262.0</ele><time>2026-04-18T09:55:14.999Z</time></trkpt><trkpt lat="43.40002760757864" lon="12.24528336167559"><ele>262.0</ele><time>2026-04-18T09:55:17.999Z</time></trkpt><trkpt lat="43.39995590336348" lon="12.245343262574083"><ele>262.0</ele><time>2026-04-18T09:55:20.999Z</time></trkpt><trkpt lat="43.399890808851794" lon="12.245404351964998"><ele>262.0</ele><time>2026-04-18T09:55:23.999Z</time></trkpt><trkpt lat="43.39981719240843" lon="12.245450709352243"><ele>262.0</ele><time>2026-04-18T09:55:26.999Z</time></trkpt><trkpt lat="43.39975522656083" lon="12.245522379327017"><ele>262.0</ele><time>2026-04-18T09:55:29.999Z</time></trkpt><trkpt lat="43.39968890850783" lon="12.245566660193518"><ele>262.16666666666663</ele><time>2026-04-18T09:55:32.999Z</time></trkpt><trkpt lat="43.39961643841565" lon="12.245582543692652"><ele>262.3333333333333</ele><time>2026-04-18T09:55:35.999Z</time></trkpt><trkpt lat="43.399544561728604" lon="12.24559177868358"><ele>262.5</ele><time>2026-04-18T09:55:38.999Z</time></trkpt><trkpt lat="43.39947934312595" lon="12.24561146115841"><ele>262.6666666666667</ele><time>2026-04-18T09:55:40.999Z</time></trkpt><trkpt lat="43.39939343112147" lon="12.245603887718165"><ele>262.83333333333337</ele><time>2026-04-18T09:55:43.999Z</time></trkpt><trkpt lat="43.39932965316078" lon="12.245635321467237"><ele>263.0</ele><time>2026-04-18T09:55:45.999Z</time></trkpt><trkpt lat="43.399266190427454" lon="12.245713608660346"><ele>263.0</ele><time>2026-04-18T09:55:48.999Z</time></trkpt><trkpt lat="43.399211471419285" lon="12.24576353313413"><ele>263.0</ele><time>2026-04-18T09:55:50.999Z</time></trkpt><trkpt lat="43.39915479167216" lon="12.245828003325986"><ele>263.0</ele><time>2026-04-18T09:55:53.999Z</time></trkpt><trkpt lat="43.39911098392963" lon="12.245918679494238"><ele>263.0</ele><time>2026-04-18T09:55:56.999Z</time></trkpt><trkpt lat="43.399070902798755" lon="12.246016865444295"><ele>263.0</ele><time>2026-04-18T09:55:59.999Z</time></trkpt><trkpt lat="43.399001861474446" lon="12.246054775263424"><ele>263.0</ele><time>2026-04-18T09:56:02.999Z</time></trkpt><trkpt lat="43.39893360393179" lon="12.246079606430236"><ele>263.0</ele><time>2026-04-18T09:56:05.999Z</time></trkpt><trkpt lat="43.39886867323586" lon="12.246120753383158"><ele>263.2857142857143</ele><time>2026-04-18T09:56:08.998Z</time></trkpt><trkpt lat="43.398808012706006" lon="12.246144026585672"><ele>263.57142857142856</ele><time>2026-04-18T09:56:11.998Z</time></trkpt><trkpt lat="43.39873563793261" lon="12.246163279727007"><ele>263.85714285714283</ele><time>2026-04-18T09:56:15Z</time></trkpt><trkpt lat="43.39866554543167" lon="12.246190644660741"><ele>264.1428571428571</ele><time>2026-04-18T09:56:18Z</time></trkpt><trkpt lat="43.39860212984193" lon="12.246197848919774"><ele>264.42857142857144</ele><time>2026-04-18T09:56:20Z</time></trkpt><trkpt lat="43.39854226990578" lon="12.246227590428113"><ele>264.71428571428567</ele><time>2026-04-18T09:56:22Z</time></trkpt><trkpt lat="43.398465539652" lon="12.246253296606975"><ele>265.0</ele><time>2026-04-18T09:56:25Z</time></trkpt><trkpt lat="43.39839295482242" lon="12.246302961426355"><ele>265.0</ele><time>2026-04-18T09:56:28Z</time></trkpt><trkpt lat="43.39831394415455" lon="12.246324144019411"><ele>265.0</ele><time>2026-04-18T09:56:31Z</time></trkpt><trkpt lat="43.39823796994903" lon="12.24634464843334"><ele>265.0</ele><time>2026-04-18T09:56:34Z</time></trkpt><trkpt lat="43.39815474495733" lon="12.24635688494329"><ele>265.0</ele><time>2026-04-18T09:56:37Z</time></trkpt><trkpt lat="43.39807252850497" lon="12.246353725584099"><ele>265.0</ele><time>2026-04-18T09:56:40Z</time></trkpt><trkpt lat="43.39799707155791" lon="12.246410394434898"><ele>265.0</ele><time>2026-04-18T09:56:44Z</time></trkpt><trkpt lat="43.39794253258858" lon="12.246480911393604"><ele>264.66666666666663</ele><time>2026-04-18T09:56:47Z</time></trkpt><trkpt lat="43.39793039562014" lon="12.246578699698677"><ele>264.3333333333333</ele><time>2026-04-18T09:56:50Z</time></trkpt><trkpt lat="43.39784389766993" lon="12.246548421749548"><ele>264.0</ele><time>2026-04-18T09:56:58Z</time></trkpt><trkpt lat="43.397774348381056" lon="12.246570426760726"><ele>263.6666666666667</ele><time>2026-04-18T09:57:01Z</time></trkpt><trkpt lat="43.397699690282124" lon="12.246604039814303"><ele>263.33333333333337</ele><time>2026-04-18T09:57:03.999Z</time></trkpt><trkpt lat="43.39762270930243" lon="12.246642304034598"><ele>263.0</ele><time>2026-04-18T09:57:06.999Z</time></trkpt><trkpt lat="43.39753849388276" lon="12.246665837609562"><ele>263.0</ele><time>2026-04-18T09:57:09.999Z</time></trkpt><trkpt lat="43.397463962670706" lon="12.246673315126102"><ele>263.0</ele><time>2026-04-18T09:57:12.999Z</time></trkpt><trkpt lat="43.397402550052604" lon="12.246651623128967"><ele>263.0</ele><time>2026-04-18T09:57:14.999Z</time></trkpt><trkpt lat="43.39732180250517" lon="12.246662397945922"><ele>263.0</ele><time>2026-04-18T09:57:17.999Z</time></trkpt><trkpt lat="43.39724791429038" lon="12.246647194461993"><ele>263.0</ele><time>2026-04-18T09:57:20.999Z</time></trkpt><trkpt lat="43.397171435596135" lon="12.246662580812854"><ele>263.0</ele><time>2026-04-18T09:57:23.999Z</time></trkpt><trkpt lat="43.397093220926344" lon="12.24666466279768"><ele>263.0</ele><time>2026-04-18T09:57:26.999Z</time></trkpt><trkpt lat="43.39703237037547" lon="12.246711548650916"><ele>263.0</ele><time>2026-04-18T09:57:29.999Z</time></trkpt><trkpt lat="43.39695385095369" lon="12.246692434988935"><ele>263.0</ele><time>2026-04-18T09:57:34.999Z</time></trkpt><trkpt lat="43.396877754946345" lon="12.246720666357046"><ele>263.0</ele><time>2026-04-18T09:57:37.999Z</time></trkpt><trkpt lat="43.39681295530496" lon="12.246758357580218"><ele>263.0</ele><time>2026-04-18T09:57:40.999Z</time></trkpt><trkpt lat="43.396738730447034" lon="12.246771824710562"><ele>263.0</ele><time>2026-04-18T09:57:43.999Z</time></trkpt><trkpt lat="43.39666725101607" lon="12.246797688572839"><ele>263.0</ele><time>2026-04-18T09:57:46.999Z</time></trkpt><trkpt lat="43.396596843218376" lon="12.246819157317082"><ele>263.0</ele><time>2026-04-18T09:57:49.999Z</time></trkpt><trkpt lat="43.39653037026241" lon="12.246826160917491"><ele>263.0</ele><time>2026-04-18T09:57:52.999Z</time></trkpt><trkpt lat="43.396575881984425" lon="12.246921509212234"><ele>263.0</ele><time>2026-04-18T09:58:05.999Z</time></trkpt><trkpt lat="43.3965898018193" lon="12.247047165912857"><ele>263.0</ele><time>2026-04-18T09:58:08.999Z</time></trkpt><trkpt lat="43.396613234359" lon="12.247150356019302"><ele>263.0</ele><time>2026-04-18T09:58:11.998Z</time></trkpt><trkpt lat="43.39662869994007" lon="12.247255604161214"><ele>263.0</ele><time>2026-04-18T09:58:14.998Z</time></trkpt><trkpt lat="43.39665153555858" lon="12.247372072889343"><ele>262.83333333333337</ele><time>2026-04-18T09:58:17.998Z</time></trkpt><trkpt lat="43.39667005506628" lon="12.247478771587602"><ele>262.6666666666667</ele><time>2026-04-18T09:58:21Z</time></trkpt><trkpt lat="43.39667964460023" lon="12.247585241681946"><ele>262.5</ele><time>2026-04-18T09:58:24Z</time></trkpt><trkpt lat="43.3967060576379" lon="12.247695397084371"><ele>262.3333333333333</ele><time>2026-04-18T09:58:27Z</time></trkpt><trkpt lat="43.396746757987195" lon="12.247778508826626"><ele>262.16666666666663</ele><time>2026-04-18T09:58:30Z</time></trkpt><trkpt lat="43.39676347963009" lon="12.247872668357124"><ele>262.0</ele><time>2026-04-18T09:58:33Z</time></trkpt><trkpt lat="43.39679094066441" lon="12.247982403378106"><ele>262.0</ele><time>2026-04-18T09:58:36Z</time></trkpt><trkpt lat="43.39679784928666" lon="12.248089052444215"><ele>262.0</ele><time>2026-04-18T09:58:39Z</time></trkpt><trkpt lat="43.396812148396805" lon="12.248197168236684"><ele>262.0</ele><time>2026-04-18T09:58:42Z</time></trkpt><trkpt lat="43.39682426629543" lon="12.248301344067333"><ele>262.0</ele><time>2026-04-18T09:58:45Z</time></trkpt><trkpt lat="43.39683726764953" lon="12.24839905523897"><ele>262.0</ele><time>2026-04-18T09:58:48Z</time></trkpt><trkpt lat="43.39685150546631" lon="12.24850701616496"><ele>262.0</ele><time>2026-04-18T09:58:51Z</time></trkpt><trkpt lat="43.396860130048275" lon="12.248601347096656"><ele>261.8333333333333</ele><time>2026-04-18T09:58:54Z</time></trkpt><trkpt lat="43.3968786921585" lon="12.248702601800447"><ele>261.66666666666663</ele><time>2026-04-18T09:58:57Z</time></trkpt><trkpt lat="43.39689353223102" lon="12.248803170383686"><ele>261.5</ele><time>2026-04-18T09:59:00Z</time></trkpt><trkpt lat="43.39691157030864" lon="12.24890776459775"><ele>261.3333333333333</ele><time>2026-04-18T09:59:03Z</time></trkpt><trkpt lat="43.39693100549847" lon="12.24902611873452"><ele>261.1666666666667</ele><time>2026-04-18T09:59:06Z</time></trkpt><trkpt lat="43.39694514278654" lon="12.249144596721688"><ele>261.0</ele><time>2026-04-18T09:59:09Z</time></trkpt><trkpt lat="43.39693768995678" lon="12.249251585779097"><ele>260.8571428571429</ele><time>2026-04-18T09:59:11.999Z</time></trkpt><trkpt lat="43.39692022051925" lon="12.249347551499195"><ele>260.7142857142857</ele><time>2026-04-18T09:59:14.999Z</time></trkpt><trkpt lat="43.39685462221335" lon="12.249372270586349"><ele>260.57142857142856</ele><time>2026-04-18T09:59:17.999Z</time></trkpt><trkpt lat="43.39678070821911" lon="12.24934978276649"><ele>260.42857142857144</ele><time>2026-04-18T09:59:20.999Z</time></trkpt><trkpt lat="43.39670584195385" lon="12.249360133582517"><ele>260.2857142857143</ele><time>2026-04-18T09:59:23.999Z</time></trkpt><trkpt lat="43.39662323747308" lon="12.249372419646233"><ele>260.14285714285717</ele><time>2026-04-18T09:59:26.999Z</time></trkpt><trkpt lat="43.396551373650986" lon="12.249383297309743"><ele>260.0</ele><time>2026-04-18T09:59:29.999Z</time></trkpt><trkpt lat="43.39647884665707" lon="12.249392732585152"><ele>260.0</ele><time>2026-04-18T09:59:32.999Z</time></trkpt><trkpt lat="43.396405081983005" lon="12.24940250357928"><ele>260.0</ele><time>2026-04-18T09:59:35.999Z</time></trkpt><trkpt lat="43.39632050424206" lon="12.249410373520353"><ele>260.0</ele><time>2026-04-18T09:59:38.999Z</time></trkpt><trkpt lat="43.39625338957965" lon="12.249405777724867"><ele>260.0</ele><time>2026-04-18T09:59:41.999Z</time></trkpt><trkpt lat="43.39617702952763" lon="12.24940909058904"><ele>260.0</ele><time>2026-04-18T09:59:44.999Z</time></trkpt><trkpt lat="43.39610001105516" lon="12.249398860903462"><ele>260.0</ele><time>2026-04-18T09:59:47.999Z</time></trkpt><trkpt lat="43.39602524449946" lon="12.249400534336024"><ele>260.0</ele><time>2026-04-18T09:59:50.999Z</time></trkpt><trkpt lat="43.395941080712156" lon="12.24941921645639"><ele>260.0</ele><time>2026-04-18T09:59:53.999Z</time></trkpt><trkpt lat="43.39587204620099" lon="12.249398082698953"><ele>260.0</ele><time>2026-04-18T09:59:56.999Z</time></trkpt><trkpt lat="43.39580171368439" lon="12.249370861092881"><ele>260.0</ele><time>2026-04-18T09:59:59.999Z</time></trkpt><trkpt lat="43.395722753786835" lon="12.249392156440754"><ele>260.0</ele><time>2026-04-18T10:00:02.999Z</time></trkpt><trkpt lat="43.395655637732574" lon="12.249425543001696"><ele>260.0</ele><time>2026-04-18T10:00:05.999Z</time></trkpt><trkpt lat="43.39557748301384" lon="12.249430527120479"><ele>260.00000000000006</ele><time>2026-04-18T10:00:08.999Z</time></trkpt><trkpt lat="43.39550395293815" lon="12.249433550625865"><ele>260.0</ele><time>2026-04-18T10:00:11.999Z</time></trkpt><trkpt lat="43.39543261546905" lon="12.249431457837312"><ele>260.0</ele><time>2026-04-18T10:00:14.999Z</time></trkpt><trkpt lat="43.39535421296159" lon="12.249417229408808"><ele>260.0</ele><time>2026-04-18T10:00:17.998Z</time></trkpt><trkpt lat="43.395278796346055" lon="12.249418099485354"><ele>260.0</ele><time>2026-04-18T10:00:20.998Z</time></trkpt><trkpt lat="43.39520528029421" lon="12.249408974445375"><ele>260.00000000000006</ele><time>2026-04-18T10:00:23.998Z</time></trkpt><trkpt lat="43.39513783736739" lon="12.249402538954605"><ele>260.0</ele><time>2026-04-18T10:00:27Z</time></trkpt><trkpt lat="43.395053264986885" lon="12.249396331193669"><ele>261.0</ele><time>2026-04-18T10:00:30Z</time></trkpt><trkpt lat="43.3949896318349" lon="12.24936560756341"><ele>261.0</ele><time>2026-04-18T10:00:33Z</time></trkpt><trkpt lat="43.39491860327546" lon="12.24934104425413"><ele>261.0</ele><time>2026-04-18T10:00:36Z</time></trkpt><trkpt lat="43.39484823396936" lon="12.249327218142488"><ele>261.0</ele><time>2026-04-18T10:00:41Z</time></trkpt></trkseg></trk></gpx>